<?xml version="1.0" encoding="UTF-8" standalone="no" ?>
<gpx xmlns="http://www.topografix.com/GPX/1/1" xmlns:xsi="http://www.w3.org/2001/XMLSchema-instance" xsi:schemaLocation="http://www.topografix.com/GPX/1/1 http://www.topografix.com/GPX/1/1/gpx.xsd" version="1.1" creator="VisuGPX - https://www.visugpx.com">
  <metadata>
    <name>Rossignol Run marathon</name>
  </metadata>
  <trk>
    <name><![CDATA[Rossignol Run 2026 - marathon-23049342]]></name>
    <trkseg>
      <trkpt lat="49.71859" lon="5.48327">
        <ele>335</ele>
        <time>2025-12-18T15:53:39Z</time>
      </trkpt>
      <trkpt lat="49.71905" lon="5.48368">
        <ele>335</ele>
        <time>2025-12-18T15:54:06Z</time>
      </trkpt>
      <trkpt lat="49.71932" lon="5.48389">
        <ele>335</ele>
        <time>2025-12-18T15:54:21Z</time>
      </trkpt>
      <trkpt lat="49.71955" lon="5.48408">
        <ele>336</ele>
        <time>2025-12-18T15:54:34Z</time>
      </trkpt>
      <trkpt lat="49.71959" lon="5.48396">
        <ele>336</ele>
        <time>2025-12-18T15:54:38Z</time>
      </trkpt>
      <trkpt lat="49.71959" lon="5.48396">
        <ele>336</ele>
        <time>2025-12-18T15:54:38Z</time>
      </trkpt>
      <trkpt lat="49.71995" lon="5.48309">
        <ele>335</ele>
        <time>2025-12-18T15:55:12Z</time>
      </trkpt>
      <trkpt lat="49.71997" lon="5.48298">
        <ele>335</ele>
        <time>2025-12-18T15:55:15Z</time>
      </trkpt>
      <trkpt lat="49.71997" lon="5.48286">
        <ele>336</ele>
        <time>2025-12-18T15:55:19Z</time>
      </trkpt>
      <trkpt lat="49.71995" lon="5.48273">
        <ele>336</ele>
        <time>2025-12-18T15:55:23Z</time>
      </trkpt>
      <trkpt lat="49.71992" lon="5.48244">
        <ele>336</ele>
        <time>2025-12-18T15:55:33Z</time>
      </trkpt>
      <trkpt lat="49.71989" lon="5.48204">
        <ele>337</ele>
        <time>2025-12-18T15:55:46Z</time>
      </trkpt>
      <trkpt lat="49.7199" lon="5.48167">
        <ele>338</ele>
        <time>2025-12-18T15:55:58Z</time>
      </trkpt>
      <trkpt lat="49.71993" lon="5.48145">
        <ele>338</ele>
        <time>2025-12-18T15:56:05Z</time>
      </trkpt>
      <trkpt lat="49.72001" lon="5.4811">
        <ele>339</ele>
        <time>2025-12-18T15:56:17Z</time>
      </trkpt>
      <trkpt lat="49.72009" lon="5.48084">
        <ele>339</ele>
        <time>2025-12-18T15:56:27Z</time>
      </trkpt>
      <trkpt lat="49.72017" lon="5.48067">
        <ele>340</ele>
        <time>2025-12-18T15:56:33Z</time>
      </trkpt>
      <trkpt lat="49.7202" lon="5.48055">
        <ele>340</ele>
        <time>2025-12-18T15:56:38Z</time>
      </trkpt>
      <trkpt lat="49.72034" lon="5.48036">
        <ele>341</ele>
        <time>2025-12-18T15:56:47Z</time>
      </trkpt>
      <trkpt lat="49.72034" lon="5.48036">
        <ele>341</ele>
        <time>2025-12-18T15:56:47Z</time>
      </trkpt>
      <trkpt lat="49.72042" lon="5.48027">
        <ele>341</ele>
        <time>2025-12-18T15:56:52Z</time>
      </trkpt>
      <trkpt lat="49.72045" lon="5.48044">
        <ele>341</ele>
        <time>2025-12-18T15:56:57Z</time>
      </trkpt>
      <trkpt lat="49.72053" lon="5.48058">
        <ele>342</ele>
        <time>2025-12-18T15:57:04Z</time>
      </trkpt>
      <trkpt lat="49.72082" lon="5.4808">
        <ele>343</ele>
        <time>2025-12-18T15:57:20Z</time>
      </trkpt>
      <trkpt lat="49.72097" lon="5.4804">
        <ele>344</ele>
        <time>2025-12-18T15:57:35Z</time>
      </trkpt>
      <trkpt lat="49.7211" lon="5.48019">
        <ele>344</ele>
        <time>2025-12-18T15:57:44Z</time>
      </trkpt>
      <trkpt lat="49.72119" lon="5.4801">
        <ele>344</ele>
        <time>2025-12-18T15:57:49Z</time>
      </trkpt>
      <trkpt lat="49.72134" lon="5.48003">
        <ele>345</ele>
        <time>2025-12-18T15:57:57Z</time>
      </trkpt>
      <trkpt lat="49.72159" lon="5.47991">
        <ele>346</ele>
        <time>2025-12-18T15:58:10Z</time>
      </trkpt>
      <trkpt lat="49.72177" lon="5.47984">
        <ele>346</ele>
        <time>2025-12-18T15:58:20Z</time>
      </trkpt>
      <trkpt lat="49.72196" lon="5.47972">
        <ele>347</ele>
        <time>2025-12-18T15:58:30Z</time>
      </trkpt>
      <trkpt lat="49.72216" lon="5.47958">
        <ele>347</ele>
        <time>2025-12-18T15:58:41Z</time>
      </trkpt>
      <trkpt lat="49.72224" lon="5.47947">
        <ele>347</ele>
        <time>2025-12-18T15:58:46Z</time>
      </trkpt>
      <trkpt lat="49.72251" lon="5.479">
        <ele>347</ele>
        <time>2025-12-18T15:59:07Z</time>
      </trkpt>
      <trkpt lat="49.7229" lon="5.47827">
        <ele>347</ele>
        <time>2025-12-18T15:59:37Z</time>
      </trkpt>
      <trkpt lat="49.72327" lon="5.4778">
        <ele>349</ele>
        <time>2025-12-18T16:00:01Z</time>
      </trkpt>
      <trkpt lat="49.72361" lon="5.47749">
        <ele>350</ele>
        <time>2025-12-18T16:00:21Z</time>
      </trkpt>
      <trkpt lat="49.7241" lon="5.47703">
        <ele>353</ele>
        <time>2025-12-18T16:00:50Z</time>
      </trkpt>
      <trkpt lat="49.72433" lon="5.47669">
        <ele>354</ele>
        <time>2025-12-18T16:01:06Z</time>
      </trkpt>
      <trkpt lat="49.72472" lon="5.47598">
        <ele>354</ele>
        <time>2025-12-18T16:01:36Z</time>
      </trkpt>
      <trkpt lat="49.72479" lon="5.47587">
        <ele>354</ele>
        <time>2025-12-18T16:01:41Z</time>
      </trkpt>
      <trkpt lat="49.72535" lon="5.47512">
        <ele>353</ele>
        <time>2025-12-18T16:02:18Z</time>
      </trkpt>
      <trkpt lat="49.72543" lon="5.4752">
        <ele>354</ele>
        <time>2025-12-18T16:02:23Z</time>
      </trkpt>
      <trkpt lat="49.72599" lon="5.47606">
        <ele>357</ele>
        <time>2025-12-18T16:03:02Z</time>
      </trkpt>
      <trkpt lat="49.72618" lon="5.47632">
        <ele>359</ele>
        <time>2025-12-18T16:03:15Z</time>
      </trkpt>
      <trkpt lat="49.7265" lon="5.47675">
        <ele>361</ele>
        <time>2025-12-18T16:03:36Z</time>
      </trkpt>
      <trkpt lat="49.72691" lon="5.4774">
        <ele>362</ele>
        <time>2025-12-18T16:04:05Z</time>
      </trkpt>
      <trkpt lat="49.72741" lon="5.4783">
        <ele>363</ele>
        <time>2025-12-18T16:04:44Z</time>
      </trkpt>
      <trkpt lat="49.7286" lon="5.47617">
        <ele>375</ele>
        <time>2025-12-18T16:06:15Z</time>
      </trkpt>
      <trkpt lat="49.72876" lon="5.47589">
        <ele>377</ele>
        <time>2025-12-18T16:06:27Z</time>
      </trkpt>
      <trkpt lat="49.72879" lon="5.47584">
        <ele>377</ele>
        <time>2025-12-18T16:06:29Z</time>
      </trkpt>
      <trkpt lat="49.72879" lon="5.47582">
        <ele>377</ele>
        <time>2025-12-18T16:06:30Z</time>
      </trkpt>
      <trkpt lat="49.72879" lon="5.47582">
        <ele>377</ele>
        <time>2025-12-18T16:06:30Z</time>
      </trkpt>
      <trkpt lat="49.7288" lon="5.47581">
        <ele>377</ele>
        <time>2025-12-18T16:06:30Z</time>
      </trkpt>
      <trkpt lat="49.72891" lon="5.47562">
        <ele>378</ele>
        <time>2025-12-18T16:06:39Z</time>
      </trkpt>
      <trkpt lat="49.7292" lon="5.47572">
        <ele>382</ele>
        <time>2025-12-18T16:06:53Z</time>
      </trkpt>
      <trkpt lat="49.72954" lon="5.47576">
        <ele>382</ele>
        <time>2025-12-18T16:07:10Z</time>
      </trkpt>
      <trkpt lat="49.72972" lon="5.47581">
        <ele>383</ele>
        <time>2025-12-18T16:07:20Z</time>
      </trkpt>
      <trkpt lat="49.7297" lon="5.47585">
        <ele>383</ele>
        <time>2025-12-18T16:07:21Z</time>
      </trkpt>
      <trkpt lat="49.7297" lon="5.47603">
        <ele>383</ele>
        <time>2025-12-18T16:07:27Z</time>
      </trkpt>
      <trkpt lat="49.72976" lon="5.47631">
        <ele>383</ele>
        <time>2025-12-18T16:07:37Z</time>
      </trkpt>
      <trkpt lat="49.72976" lon="5.47652">
        <ele>383</ele>
        <time>2025-12-18T16:07:43Z</time>
      </trkpt>
      <trkpt lat="49.72967" lon="5.47705">
        <ele>382</ele>
        <time>2025-12-18T16:08:01Z</time>
      </trkpt>
      <trkpt lat="49.72965" lon="5.47742">
        <ele>381</ele>
        <time>2025-12-18T16:08:13Z</time>
      </trkpt>
      <trkpt lat="49.72971" lon="5.47769">
        <ele>381</ele>
        <time>2025-12-18T16:08:22Z</time>
      </trkpt>
      <trkpt lat="49.72981" lon="5.47797">
        <ele>380</ele>
        <time>2025-12-18T16:08:33Z</time>
      </trkpt>
      <trkpt lat="49.73007" lon="5.4786">
        <ele>379</ele>
        <time>2025-12-18T16:08:57Z</time>
      </trkpt>
      <trkpt lat="49.73026" lon="5.47912">
        <ele>377</ele>
        <time>2025-12-18T16:09:16Z</time>
      </trkpt>
      <trkpt lat="49.73047" lon="5.48001">
        <ele>372</ele>
        <time>2025-12-18T16:09:47Z</time>
      </trkpt>
      <trkpt lat="49.7305" lon="5.48008">
        <ele>372</ele>
        <time>2025-12-18T16:09:50Z</time>
      </trkpt>
      <trkpt lat="49.73062" lon="5.48012">
        <ele>372</ele>
        <time>2025-12-18T16:09:56Z</time>
      </trkpt>
      <trkpt lat="49.73085" lon="5.48017">
        <ele>372</ele>
        <time>2025-12-18T16:10:07Z</time>
      </trkpt>
      <trkpt lat="49.7312" lon="5.48032">
        <ele>371</ele>
        <time>2025-12-18T16:10:26Z</time>
      </trkpt>
      <trkpt lat="49.73139" lon="5.48055">
        <ele>370</ele>
        <time>2025-12-18T16:10:38Z</time>
      </trkpt>
      <trkpt lat="49.73199" lon="5.48016">
        <ele>372</ele>
        <time>2025-12-18T16:11:10Z</time>
      </trkpt>
      <trkpt lat="49.73602" lon="5.47761">
        <ele>386</ele>
        <time>2025-12-18T16:14:48Z</time>
      </trkpt>
      <trkpt lat="49.73766" lon="5.47633">
        <ele>390</ele>
        <time>2025-12-18T16:16:20Z</time>
      </trkpt>
      <trkpt lat="49.73838" lon="5.47571">
        <ele>391</ele>
        <time>2025-12-18T16:17:01Z</time>
      </trkpt>
      <trkpt lat="49.73847" lon="5.47593">
        <ele>391</ele>
        <time>2025-12-18T16:17:10Z</time>
      </trkpt>
      <trkpt lat="49.73871" lon="5.47633">
        <ele>392</ele>
        <time>2025-12-18T16:17:27Z</time>
      </trkpt>
      <trkpt lat="49.73879" lon="5.47643">
        <ele>393</ele>
        <time>2025-12-18T16:17:32Z</time>
      </trkpt>
      <trkpt lat="49.73901" lon="5.47659">
        <ele>393</ele>
        <time>2025-12-18T16:17:45Z</time>
      </trkpt>
      <trkpt lat="49.73906" lon="5.47669">
        <ele>394</ele>
        <time>2025-12-18T16:17:49Z</time>
      </trkpt>
      <trkpt lat="49.73906" lon="5.47669">
        <ele>394</ele>
        <time>2025-12-18T16:17:49Z</time>
      </trkpt>
      <trkpt lat="49.7391" lon="5.4768">
        <ele>394</ele>
        <time>2025-12-18T16:17:53Z</time>
      </trkpt>
      <trkpt lat="49.73915" lon="5.47694">
        <ele>395</ele>
        <time>2025-12-18T16:17:58Z</time>
      </trkpt>
      <trkpt lat="49.73921" lon="5.47697">
        <ele>395</ele>
        <time>2025-12-18T16:18:01Z</time>
      </trkpt>
      <trkpt lat="49.73936" lon="5.47699">
        <ele>396</ele>
        <time>2025-12-18T16:18:09Z</time>
      </trkpt>
      <trkpt lat="49.73946" lon="5.47696">
        <ele>396</ele>
        <time>2025-12-18T16:18:14Z</time>
      </trkpt>
      <trkpt lat="49.73948" lon="5.47694">
        <ele>396</ele>
        <time>2025-12-18T16:18:15Z</time>
      </trkpt>
      <trkpt lat="49.73948" lon="5.47694">
        <ele>396</ele>
        <time>2025-12-18T16:18:15Z</time>
      </trkpt>
      <trkpt lat="49.73976" lon="5.47663">
        <ele>397</ele>
        <time>2025-12-18T16:18:32Z</time>
      </trkpt>
      <trkpt lat="49.73987" lon="5.47656">
        <ele>398</ele>
        <time>2025-12-18T16:18:38Z</time>
      </trkpt>
      <trkpt lat="49.74044" lon="5.47625">
        <ele>400</ele>
        <time>2025-12-18T16:19:08Z</time>
      </trkpt>
      <trkpt lat="49.74128" lon="5.47575">
        <ele>401</ele>
        <time>2025-12-18T16:19:53Z</time>
      </trkpt>
      <trkpt lat="49.74133" lon="5.4757">
        <ele>401</ele>
        <time>2025-12-18T16:19:56Z</time>
      </trkpt>
      <trkpt lat="49.74156" lon="5.47541">
        <ele>401</ele>
        <time>2025-12-18T16:20:11Z</time>
      </trkpt>
      <trkpt lat="49.74196" lon="5.47506">
        <ele>402</ele>
        <time>2025-12-18T16:20:34Z</time>
      </trkpt>
      <trkpt lat="49.74238" lon="5.47461">
        <ele>405</ele>
        <time>2025-12-18T16:21:00Z</time>
      </trkpt>
      <trkpt lat="49.74283" lon="5.47395">
        <ele>407</ele>
        <time>2025-12-18T16:21:31Z</time>
      </trkpt>
      <trkpt lat="49.7432" lon="5.47318">
        <ele>407</ele>
        <time>2025-12-18T16:22:02Z</time>
      </trkpt>
      <trkpt lat="49.74325" lon="5.47298">
        <ele>406</ele>
        <time>2025-12-18T16:22:09Z</time>
      </trkpt>
      <trkpt lat="49.74334" lon="5.47282">
        <ele>406</ele>
        <time>2025-12-18T16:22:16Z</time>
      </trkpt>
      <trkpt lat="49.74339" lon="5.47252">
        <ele>405</ele>
        <time>2025-12-18T16:22:26Z</time>
      </trkpt>
      <trkpt lat="49.74346" lon="5.47245">
        <ele>406</ele>
        <time>2025-12-18T16:22:30Z</time>
      </trkpt>
      <trkpt lat="49.74359" lon="5.47255">
        <ele>407</ele>
        <time>2025-12-18T16:22:37Z</time>
      </trkpt>
      <trkpt lat="49.74373" lon="5.47256">
        <ele>407</ele>
        <time>2025-12-18T16:22:44Z</time>
      </trkpt>
      <trkpt lat="49.74382" lon="5.47244">
        <ele>408</ele>
        <time>2025-12-18T16:22:50Z</time>
      </trkpt>
      <trkpt lat="49.74392" lon="5.47242">
        <ele>408</ele>
        <time>2025-12-18T16:22:55Z</time>
      </trkpt>
      <trkpt lat="49.74403" lon="5.47244">
        <ele>409</ele>
        <time>2025-12-18T16:23:01Z</time>
      </trkpt>
      <trkpt lat="49.74439" lon="5.4723">
        <ele>411</ele>
        <time>2025-12-18T16:23:19Z</time>
      </trkpt>
      <trkpt lat="49.74578" lon="5.47149">
        <ele>418</ele>
        <time>2025-12-18T16:24:34Z</time>
      </trkpt>
      <trkpt lat="49.74603" lon="5.47148">
        <ele>419</ele>
        <time>2025-12-18T16:24:46Z</time>
      </trkpt>
      <trkpt lat="49.74638" lon="5.47124">
        <ele>420</ele>
        <time>2025-12-18T16:25:05Z</time>
      </trkpt>
      <trkpt lat="49.74641" lon="5.47121">
        <ele>420</ele>
        <time>2025-12-18T16:25:07Z</time>
      </trkpt>
      <trkpt lat="49.7467" lon="5.47084">
        <ele>420</ele>
        <time>2025-12-18T16:25:26Z</time>
      </trkpt>
      <trkpt lat="49.74793" lon="5.46966">
        <ele>432</ele>
        <time>2025-12-18T16:26:38Z</time>
      </trkpt>
      <trkpt lat="49.74802" lon="5.46939">
        <ele>432</ele>
        <time>2025-12-18T16:26:48Z</time>
      </trkpt>
      <trkpt lat="49.748" lon="5.46907">
        <ele>433</ele>
        <time>2025-12-18T16:26:58Z</time>
      </trkpt>
      <trkpt lat="49.7481" lon="5.46858">
        <ele>433</ele>
        <time>2025-12-18T16:27:15Z</time>
      </trkpt>
      <trkpt lat="49.74809" lon="5.46831">
        <ele>433</ele>
        <time>2025-12-18T16:27:24Z</time>
      </trkpt>
      <trkpt lat="49.74812" lon="5.46803">
        <ele>432</ele>
        <time>2025-12-18T16:27:33Z</time>
      </trkpt>
      <trkpt lat="49.74821" lon="5.46783">
        <ele>431</ele>
        <time>2025-12-18T16:27:41Z</time>
      </trkpt>
      <trkpt lat="49.74829" lon="5.46763">
        <ele>430</ele>
        <time>2025-12-18T16:27:48Z</time>
      </trkpt>
      <trkpt lat="49.74842" lon="5.46702">
        <ele>429</ele>
        <time>2025-12-18T16:28:09Z</time>
      </trkpt>
      <trkpt lat="49.74841" lon="5.46688">
        <ele>429</ele>
        <time>2025-12-18T16:28:14Z</time>
      </trkpt>
      <trkpt lat="49.74836" lon="5.46672">
        <ele>429</ele>
        <time>2025-12-18T16:28:20Z</time>
      </trkpt>
      <trkpt lat="49.74829" lon="5.4666">
        <ele>429</ele>
        <time>2025-12-18T16:28:25Z</time>
      </trkpt>
      <trkpt lat="49.74821" lon="5.4665">
        <ele>430</ele>
        <time>2025-12-18T16:28:30Z</time>
      </trkpt>
      <trkpt lat="49.7479" lon="5.46611">
        <ele>432</ele>
        <time>2025-12-18T16:28:50Z</time>
      </trkpt>
      <trkpt lat="49.74765" lon="5.46552">
        <ele>433</ele>
        <time>2025-12-18T16:29:13Z</time>
      </trkpt>
      <trkpt lat="49.74742" lon="5.46525">
        <ele>435</ele>
        <time>2025-12-18T16:29:27Z</time>
      </trkpt>
      <trkpt lat="49.74721" lon="5.46485">
        <ele>438</ele>
        <time>2025-12-18T16:29:44Z</time>
      </trkpt>
      <trkpt lat="49.74703" lon="5.46442">
        <ele>440</ele>
        <time>2025-12-18T16:30:00Z</time>
      </trkpt>
      <trkpt lat="49.74696" lon="5.46417">
        <ele>441</ele>
        <time>2025-12-18T16:30:09Z</time>
      </trkpt>
      <trkpt lat="49.74684" lon="5.46394">
        <ele>443</ele>
        <time>2025-12-18T16:30:19Z</time>
      </trkpt>
      <trkpt lat="49.74679" lon="5.46376">
        <ele>443</ele>
        <time>2025-12-18T16:30:25Z</time>
      </trkpt>
      <trkpt lat="49.74684" lon="5.46326">
        <ele>444</ele>
        <time>2025-12-18T16:30:41Z</time>
      </trkpt>
      <trkpt lat="49.74686" lon="5.46286">
        <ele>444</ele>
        <time>2025-12-18T16:30:54Z</time>
      </trkpt>
      <trkpt lat="49.74682" lon="5.46243">
        <ele>446</ele>
        <time>2025-12-18T16:31:08Z</time>
      </trkpt>
      <trkpt lat="49.74679" lon="5.46191">
        <ele>449</ele>
        <time>2025-12-18T16:31:25Z</time>
      </trkpt>
      <trkpt lat="49.74674" lon="5.46157">
        <ele>451</ele>
        <time>2025-12-18T16:31:37Z</time>
      </trkpt>
      <trkpt lat="49.74661" lon="5.46126">
        <ele>452</ele>
        <time>2025-12-18T16:31:49Z</time>
      </trkpt>
      <trkpt lat="49.74646" lon="5.46114">
        <ele>453</ele>
        <time>2025-12-18T16:31:57Z</time>
      </trkpt>
      <trkpt lat="49.74622" lon="5.4611">
        <ele>454</ele>
        <time>2025-12-18T16:32:09Z</time>
      </trkpt>
      <trkpt lat="49.74626" lon="5.46046">
        <ele>453</ele>
        <time>2025-12-18T16:32:30Z</time>
      </trkpt>
      <trkpt lat="49.74624" lon="5.46028">
        <ele>453</ele>
        <time>2025-12-18T16:32:36Z</time>
      </trkpt>
      <trkpt lat="49.74626" lon="5.45997">
        <ele>453</ele>
        <time>2025-12-18T16:32:46Z</time>
      </trkpt>
      <trkpt lat="49.74618" lon="5.45968">
        <ele>453</ele>
        <time>2025-12-18T16:32:56Z</time>
      </trkpt>
      <trkpt lat="49.74613" lon="5.45936">
        <ele>454</ele>
        <time>2025-12-18T16:33:07Z</time>
      </trkpt>
      <trkpt lat="49.74615" lon="5.45902">
        <ele>455</ele>
        <time>2025-12-18T16:33:18Z</time>
      </trkpt>
      <trkpt lat="49.74603" lon="5.45848">
        <ele>455</ele>
        <time>2025-12-18T16:33:36Z</time>
      </trkpt>
      <trkpt lat="49.74698" lon="5.45902">
        <ele>457</ele>
        <time>2025-12-18T16:34:27Z</time>
      </trkpt>
      <trkpt lat="49.75392" lon="5.46256">
        <ele>426</ele>
        <time>2025-12-18T16:40:33Z</time>
      </trkpt>
      <trkpt lat="49.75578" lon="5.46105">
        <ele>428</ele>
        <time>2025-12-18T16:42:18Z</time>
      </trkpt>
      <trkpt lat="49.75808" lon="5.45928">
        <ele>415</ele>
        <time>2025-12-18T16:44:26Z</time>
      </trkpt>
      <trkpt lat="49.75856" lon="5.45891">
        <ele>411</ele>
        <time>2025-12-18T16:44:53Z</time>
      </trkpt>
      <trkpt lat="49.75878" lon="5.45873">
        <ele>408</ele>
        <time>2025-12-18T16:45:05Z</time>
      </trkpt>
      <trkpt lat="49.75892" lon="5.45856">
        <ele>405</ele>
        <time>2025-12-18T16:45:14Z</time>
      </trkpt>
      <trkpt lat="49.75899" lon="5.45841">
        <ele>403</ele>
        <time>2025-12-18T16:45:20Z</time>
      </trkpt>
      <trkpt lat="49.75916" lon="5.45796">
        <ele>399</ele>
        <time>2025-12-18T16:45:37Z</time>
      </trkpt>
      <trkpt lat="49.75925" lon="5.45768">
        <ele>398</ele>
        <time>2025-12-18T16:45:47Z</time>
      </trkpt>
      <trkpt lat="49.7593" lon="5.45747">
        <ele>398</ele>
        <time>2025-12-18T16:45:55Z</time>
      </trkpt>
      <trkpt lat="49.75944" lon="5.45719">
        <ele>401</ele>
        <time>2025-12-18T16:46:06Z</time>
      </trkpt>
      <trkpt lat="49.75985" lon="5.45685">
        <ele>408</ele>
        <time>2025-12-18T16:46:29Z</time>
      </trkpt>
      <trkpt lat="49.76034" lon="5.45638">
        <ele>416</ele>
        <time>2025-12-18T16:46:58Z</time>
      </trkpt>
      <trkpt lat="49.76069" lon="5.45598">
        <ele>422</ele>
        <time>2025-12-18T16:47:20Z</time>
      </trkpt>
      <trkpt lat="49.76106" lon="5.45604">
        <ele>424</ele>
        <time>2025-12-18T16:47:39Z</time>
      </trkpt>
      <trkpt lat="49.76144" lon="5.45609">
        <ele>426</ele>
        <time>2025-12-18T16:47:58Z</time>
      </trkpt>
      <trkpt lat="49.76192" lon="5.45609">
        <ele>428</ele>
        <time>2025-12-18T16:48:22Z</time>
      </trkpt>
      <trkpt lat="49.76237" lon="5.45633">
        <ele>427</ele>
        <time>2025-12-18T16:48:45Z</time>
      </trkpt>
      <trkpt lat="49.76321" lon="5.45654">
        <ele>433</ele>
        <time>2025-12-18T16:49:28Z</time>
      </trkpt>
      <trkpt lat="49.76341" lon="5.45657">
        <ele>435</ele>
        <time>2025-12-18T16:49:38Z</time>
      </trkpt>
      <trkpt lat="49.7636" lon="5.45692">
        <ele>434</ele>
        <time>2025-12-18T16:49:53Z</time>
      </trkpt>
      <trkpt lat="49.76372" lon="5.4571">
        <ele>434</ele>
        <time>2025-12-18T16:50:01Z</time>
      </trkpt>
      <trkpt lat="49.76387" lon="5.45721">
        <ele>435</ele>
        <time>2025-12-18T16:50:10Z</time>
      </trkpt>
      <trkpt lat="49.76426" lon="5.45738">
        <ele>437</ele>
        <time>2025-12-18T16:50:30Z</time>
      </trkpt>
      <trkpt lat="49.76456" lon="5.45754">
        <ele>439</ele>
        <time>2025-12-18T16:50:46Z</time>
      </trkpt>
      <trkpt lat="49.76505" lon="5.45768">
        <ele>442</ele>
        <time>2025-12-18T16:51:11Z</time>
      </trkpt>
      <trkpt lat="49.76549" lon="5.45752">
        <ele>443</ele>
        <time>2025-12-18T16:51:33Z</time>
      </trkpt>
      <trkpt lat="49.76638" lon="5.45745">
        <ele>442</ele>
        <time>2025-12-18T16:52:18Z</time>
      </trkpt>
      <trkpt lat="49.7667" lon="5.45733">
        <ele>440</ele>
        <time>2025-12-18T16:52:34Z</time>
      </trkpt>
      <trkpt lat="49.76701" lon="5.45697">
        <ele>439</ele>
        <time>2025-12-18T16:52:54Z</time>
      </trkpt>
      <trkpt lat="49.76737" lon="5.45674">
        <ele>438</ele>
        <time>2025-12-18T16:53:13Z</time>
      </trkpt>
      <trkpt lat="49.76791" lon="5.45662">
        <ele>435</ele>
        <time>2025-12-18T16:53:40Z</time>
      </trkpt>
      <trkpt lat="49.76853" lon="5.45654">
        <ele>434</ele>
        <time>2025-12-18T16:54:12Z</time>
      </trkpt>
      <trkpt lat="49.76891" lon="5.45636">
        <ele>436</ele>
        <time>2025-12-18T16:54:31Z</time>
      </trkpt>
      <trkpt lat="49.76915" lon="5.45604">
        <ele>436</ele>
        <time>2025-12-18T16:54:47Z</time>
      </trkpt>
      <trkpt lat="49.76925" lon="5.45591">
        <ele>437</ele>
        <time>2025-12-18T16:54:54Z</time>
      </trkpt>
      <trkpt lat="49.76963" lon="5.4552">
        <ele>440</ele>
        <time>2025-12-18T16:55:24Z</time>
      </trkpt>
      <trkpt lat="49.76987" lon="5.4542">
        <ele>447</ele>
        <time>2025-12-18T16:55:58Z</time>
      </trkpt>
      <trkpt lat="49.76989" lon="5.45413">
        <ele>448</ele>
        <time>2025-12-18T16:56:01Z</time>
      </trkpt>
      <trkpt lat="49.77032" lon="5.45304">
        <ele>454</ele>
        <time>2025-12-18T16:56:42Z</time>
      </trkpt>
      <trkpt lat="49.77054" lon="5.45268">
        <ele>454</ele>
        <time>2025-12-18T16:56:58Z</time>
      </trkpt>
      <trkpt lat="49.77079" lon="5.45215">
        <ele>455</ele>
        <time>2025-12-18T16:57:19Z</time>
      </trkpt>
      <trkpt lat="49.77079" lon="5.45178">
        <ele>455</ele>
        <time>2025-12-18T16:57:31Z</time>
      </trkpt>
      <trkpt lat="49.77088" lon="5.45145">
        <ele>455</ele>
        <time>2025-12-18T16:57:43Z</time>
      </trkpt>
      <trkpt lat="49.7711" lon="5.45114">
        <ele>454</ele>
        <time>2025-12-18T16:57:58Z</time>
      </trkpt>
      <trkpt lat="49.77124" lon="5.45088">
        <ele>454</ele>
        <time>2025-12-18T16:58:09Z</time>
      </trkpt>
      <trkpt lat="49.77145" lon="5.45068">
        <ele>452</ele>
        <time>2025-12-18T16:58:21Z</time>
      </trkpt>
      <trkpt lat="49.77165" lon="5.45058">
        <ele>451</ele>
        <time>2025-12-18T16:58:31Z</time>
      </trkpt>
      <trkpt lat="49.77174" lon="5.45048">
        <ele>451</ele>
        <time>2025-12-18T16:58:37Z</time>
      </trkpt>
      <trkpt lat="49.77181" lon="5.45047">
        <ele>450</ele>
        <time>2025-12-18T16:58:40Z</time>
      </trkpt>
      <trkpt lat="49.77188" lon="5.45052">
        <ele>450</ele>
        <time>2025-12-18T16:58:44Z</time>
      </trkpt>
      <trkpt lat="49.772" lon="5.45064">
        <ele>451</ele>
        <time>2025-12-18T16:58:51Z</time>
      </trkpt>
      <trkpt lat="49.77204" lon="5.45066">
        <ele>450</ele>
        <time>2025-12-18T16:58:54Z</time>
      </trkpt>
      <trkpt lat="49.77209" lon="5.45064">
        <ele>450</ele>
        <time>2025-12-18T16:58:56Z</time>
      </trkpt>
      <trkpt lat="49.77213" lon="5.45061">
        <ele>450</ele>
        <time>2025-12-18T16:58:58Z</time>
      </trkpt>
      <trkpt lat="49.77221" lon="5.45049">
        <ele>449</ele>
        <time>2025-12-18T16:59:04Z</time>
      </trkpt>
      <trkpt lat="49.7724" lon="5.45037">
        <ele>449</ele>
        <time>2025-12-18T16:59:14Z</time>
      </trkpt>
      <trkpt lat="49.77254" lon="5.4502">
        <ele>448</ele>
        <time>2025-12-18T16:59:23Z</time>
      </trkpt>
      <trkpt lat="49.77261" lon="5.45001">
        <ele>447</ele>
        <time>2025-12-18T16:59:30Z</time>
      </trkpt>
      <trkpt lat="49.77266" lon="5.4499">
        <ele>447</ele>
        <time>2025-12-18T16:59:34Z</time>
      </trkpt>
      <trkpt lat="49.7727" lon="5.44988">
        <ele>447</ele>
        <time>2025-12-18T16:59:37Z</time>
      </trkpt>
      <trkpt lat="49.77276" lon="5.44989">
        <ele>447</ele>
        <time>2025-12-18T16:59:40Z</time>
      </trkpt>
      <trkpt lat="49.77285" lon="5.44981">
        <ele>447</ele>
        <time>2025-12-18T16:59:45Z</time>
      </trkpt>
      <trkpt lat="49.773" lon="5.44944">
        <ele>447</ele>
        <time>2025-12-18T16:59:59Z</time>
      </trkpt>
      <trkpt lat="49.77304" lon="5.44936">
        <ele>446</ele>
        <time>2025-12-18T17:00:02Z</time>
      </trkpt>
      <trkpt lat="49.77318" lon="5.44926">
        <ele>447</ele>
        <time>2025-12-18T17:00:10Z</time>
      </trkpt>
      <trkpt lat="49.77332" lon="5.44914">
        <ele>447</ele>
        <time>2025-12-18T17:00:18Z</time>
      </trkpt>
      <trkpt lat="49.7734" lon="5.44898">
        <ele>446</ele>
        <time>2025-12-18T17:00:24Z</time>
      </trkpt>
      <trkpt lat="49.7735" lon="5.44874">
        <ele>446</ele>
        <time>2025-12-18T17:00:34Z</time>
      </trkpt>
      <trkpt lat="49.77356" lon="5.44863">
        <ele>446</ele>
        <time>2025-12-18T17:00:38Z</time>
      </trkpt>
      <trkpt lat="49.77368" lon="5.44854">
        <ele>445</ele>
        <time>2025-12-18T17:00:45Z</time>
      </trkpt>
      <trkpt lat="49.77401" lon="5.44829">
        <ele>446</ele>
        <time>2025-12-18T17:01:03Z</time>
      </trkpt>
      <trkpt lat="49.77433" lon="5.44836">
        <ele>445</ele>
        <time>2025-12-18T17:01:20Z</time>
      </trkpt>
      <trkpt lat="49.77454" lon="5.44848">
        <ele>445</ele>
        <time>2025-12-18T17:01:31Z</time>
      </trkpt>
      <trkpt lat="49.77462" lon="5.4485">
        <ele>444</ele>
        <time>2025-12-18T17:01:35Z</time>
      </trkpt>
      <trkpt lat="49.77467" lon="5.44848">
        <ele>444</ele>
        <time>2025-12-18T17:01:37Z</time>
      </trkpt>
      <trkpt lat="49.77476" lon="5.44848">
        <ele>444</ele>
        <time>2025-12-18T17:01:42Z</time>
      </trkpt>
      <trkpt lat="49.77484" lon="5.44845">
        <ele>443</ele>
        <time>2025-12-18T17:01:46Z</time>
      </trkpt>
      <trkpt lat="49.7749" lon="5.44838">
        <ele>443</ele>
        <time>2025-12-18T17:01:50Z</time>
      </trkpt>
      <trkpt lat="49.77497" lon="5.44827">
        <ele>442</ele>
        <time>2025-12-18T17:01:55Z</time>
      </trkpt>
      <trkpt lat="49.77499" lon="5.44815">
        <ele>441</ele>
        <time>2025-12-18T17:01:59Z</time>
      </trkpt>
      <trkpt lat="49.77542" lon="5.44788">
        <ele>439</ele>
        <time>2025-12-18T17:02:22Z</time>
      </trkpt>
      <trkpt lat="49.77557" lon="5.44775">
        <ele>439</ele>
        <time>2025-12-18T17:02:31Z</time>
      </trkpt>
      <trkpt lat="49.77563" lon="5.44762">
        <ele>438</ele>
        <time>2025-12-18T17:02:36Z</time>
      </trkpt>
      <trkpt lat="49.77565" lon="5.44747">
        <ele>438</ele>
        <time>2025-12-18T17:02:41Z</time>
      </trkpt>
      <trkpt lat="49.77562" lon="5.44662">
        <ele>436</ele>
        <time>2025-12-18T17:03:08Z</time>
      </trkpt>
      <trkpt lat="49.77572" lon="5.44567">
        <ele>436</ele>
        <time>2025-12-18T17:03:39Z</time>
      </trkpt>
      <trkpt lat="49.77574" lon="5.44521">
        <ele>433</ele>
        <time>2025-12-18T17:03:54Z</time>
      </trkpt>
      <trkpt lat="49.77564" lon="5.4446">
        <ele>431</ele>
        <time>2025-12-18T17:04:15Z</time>
      </trkpt>
      <trkpt lat="49.7756" lon="5.4443">
        <ele>430</ele>
        <time>2025-12-18T17:04:24Z</time>
      </trkpt>
      <trkpt lat="49.77559" lon="5.4437">
        <ele>427</ele>
        <time>2025-12-18T17:04:44Z</time>
      </trkpt>
      <trkpt lat="49.77565" lon="5.44317">
        <ele>424</ele>
        <time>2025-12-18T17:05:01Z</time>
      </trkpt>
      <trkpt lat="49.77566" lon="5.4429">
        <ele>422</ele>
        <time>2025-12-18T17:05:10Z</time>
      </trkpt>
      <trkpt lat="49.77573" lon="5.44169">
        <ele>411</ele>
        <time>2025-12-18T17:05:49Z</time>
      </trkpt>
      <trkpt lat="49.7752" lon="5.44139">
        <ele>409</ele>
        <time>2025-12-18T17:06:18Z</time>
      </trkpt>
      <trkpt lat="49.77481" lon="5.44123">
        <ele>409</ele>
        <time>2025-12-18T17:06:38Z</time>
      </trkpt>
      <trkpt lat="49.77476" lon="5.44119">
        <ele>410</ele>
        <time>2025-12-18T17:06:41Z</time>
      </trkpt>
      <trkpt lat="49.77473" lon="5.44112">
        <ele>410</ele>
        <time>2025-12-18T17:06:43Z</time>
      </trkpt>
      <trkpt lat="49.7745" lon="5.43938">
        <ele>416</ele>
        <time>2025-12-18T17:07:41Z</time>
      </trkpt>
      <trkpt lat="49.77448" lon="5.43913">
        <ele>417</ele>
        <time>2025-12-18T17:07:49Z</time>
      </trkpt>
      <trkpt lat="49.7745" lon="5.43889">
        <ele>418</ele>
        <time>2025-12-18T17:07:57Z</time>
      </trkpt>
      <trkpt lat="49.7748" lon="5.43723">
        <ele>417</ele>
        <time>2025-12-18T17:08:52Z</time>
      </trkpt>
      <trkpt lat="49.77516" lon="5.43544">
        <ele>405</ele>
        <time>2025-12-18T17:09:53Z</time>
      </trkpt>
      <trkpt lat="49.77517" lon="5.43538">
        <ele>405</ele>
        <time>2025-12-18T17:09:55Z</time>
      </trkpt>
      <trkpt lat="49.77517" lon="5.43499">
        <ele>401</ele>
        <time>2025-12-18T17:10:07Z</time>
      </trkpt>
      <trkpt lat="49.77508" lon="5.43333">
        <ele>399</ele>
        <time>2025-12-18T17:11:01Z</time>
      </trkpt>
      <trkpt lat="49.77502" lon="5.4329">
        <ele>404</ele>
        <time>2025-12-18T17:11:16Z</time>
      </trkpt>
      <trkpt lat="49.77483" lon="5.43193">
        <ele>409</ele>
        <time>2025-12-18T17:11:48Z</time>
      </trkpt>
      <trkpt lat="49.77442" lon="5.43001">
        <ele>415</ele>
        <time>2025-12-18T17:12:54Z</time>
      </trkpt>
      <trkpt lat="49.77433" lon="5.42973">
        <ele>414</ele>
        <time>2025-12-18T17:13:04Z</time>
      </trkpt>
      <trkpt lat="49.77396" lon="5.42788">
        <ele>413</ele>
        <time>2025-12-18T17:14:06Z</time>
      </trkpt>
      <trkpt lat="49.77388" lon="5.42736">
        <ele>417</ele>
        <time>2025-12-18T17:14:24Z</time>
      </trkpt>
      <trkpt lat="49.77378" lon="5.4267">
        <ele>419</ele>
        <time>2025-12-18T17:14:46Z</time>
      </trkpt>
      <trkpt lat="49.77362" lon="5.42598">
        <ele>421</ele>
        <time>2025-12-18T17:15:10Z</time>
      </trkpt>
      <trkpt lat="49.77344" lon="5.42511">
        <ele>423</ele>
        <time>2025-12-18T17:15:40Z</time>
      </trkpt>
      <trkpt lat="49.77322" lon="5.42442">
        <ele>426</ele>
        <time>2025-12-18T17:16:05Z</time>
      </trkpt>
      <trkpt lat="49.77312" lon="5.42415">
        <ele>427</ele>
        <time>2025-12-18T17:16:15Z</time>
      </trkpt>
      <trkpt lat="49.77309" lon="5.42404">
        <ele>427</ele>
        <time>2025-12-18T17:16:18Z</time>
      </trkpt>
      <trkpt lat="49.77289" lon="5.42303">
        <ele>428</ele>
        <time>2025-12-18T17:16:53Z</time>
      </trkpt>
      <trkpt lat="49.77281" lon="5.4226">
        <ele>427</ele>
        <time>2025-12-18T17:17:07Z</time>
      </trkpt>
      <trkpt lat="49.77266" lon="5.42176">
        <ele>425</ele>
        <time>2025-12-18T17:17:35Z</time>
      </trkpt>
      <trkpt lat="49.77246" lon="5.4207">
        <ele>423</ele>
        <time>2025-12-18T17:18:11Z</time>
      </trkpt>
      <trkpt lat="49.77197" lon="5.4187">
        <ele>422</ele>
        <time>2025-12-18T17:19:20Z</time>
      </trkpt>
      <trkpt lat="49.77192" lon="5.41836">
        <ele>421</ele>
        <time>2025-12-18T17:19:31Z</time>
      </trkpt>
      <trkpt lat="49.77184" lon="5.41797">
        <ele>420</ele>
        <time>2025-12-18T17:19:45Z</time>
      </trkpt>
      <trkpt lat="49.77177" lon="5.4178">
        <ele>419</ele>
        <time>2025-12-18T17:19:51Z</time>
      </trkpt>
      <trkpt lat="49.77167" lon="5.41759">
        <ele>418</ele>
        <time>2025-12-18T17:19:59Z</time>
      </trkpt>
      <trkpt lat="49.77156" lon="5.41745">
        <ele>416</ele>
        <time>2025-12-18T17:20:07Z</time>
      </trkpt>
      <trkpt lat="49.77138" lon="5.41726">
        <ele>414</ele>
        <time>2025-12-18T17:20:18Z</time>
      </trkpt>
      <trkpt lat="49.77122" lon="5.41705">
        <ele>412</ele>
        <time>2025-12-18T17:20:28Z</time>
      </trkpt>
      <trkpt lat="49.77062" lon="5.41592">
        <ele>406</ele>
        <time>2025-12-18T17:21:15Z</time>
      </trkpt>
      <trkpt lat="49.77054" lon="5.41575">
        <ele>404</ele>
        <time>2025-12-18T17:21:22Z</time>
      </trkpt>
      <trkpt lat="49.77046" lon="5.41566">
        <ele>403</ele>
        <time>2025-12-18T17:21:27Z</time>
      </trkpt>
      <trkpt lat="49.77046" lon="5.41555">
        <ele>402</ele>
        <time>2025-12-18T17:21:31Z</time>
      </trkpt>
      <trkpt lat="49.77033" lon="5.41507">
        <ele>399</ele>
        <time>2025-12-18T17:21:47Z</time>
      </trkpt>
      <trkpt lat="49.77028" lon="5.41479">
        <ele>396</ele>
        <time>2025-12-18T17:21:57Z</time>
      </trkpt>
      <trkpt lat="49.77024" lon="5.41426">
        <ele>391</ele>
        <time>2025-12-18T17:22:14Z</time>
      </trkpt>
      <trkpt lat="49.77014" lon="5.41359">
        <ele>387</ele>
        <time>2025-12-18T17:22:36Z</time>
      </trkpt>
      <trkpt lat="49.77004" lon="5.4132">
        <ele>385</ele>
        <time>2025-12-18T17:22:50Z</time>
      </trkpt>
      <trkpt lat="49.76987" lon="5.41265">
        <ele>383</ele>
        <time>2025-12-18T17:23:10Z</time>
      </trkpt>
      <trkpt lat="49.76966" lon="5.41199">
        <ele>381</ele>
        <time>2025-12-18T17:23:33Z</time>
      </trkpt>
      <trkpt lat="49.76941" lon="5.4111">
        <ele>381</ele>
        <time>2025-12-18T17:24:05Z</time>
      </trkpt>
      <trkpt lat="49.76928" lon="5.41044">
        <ele>381</ele>
        <time>2025-12-18T17:24:27Z</time>
      </trkpt>
      <trkpt lat="49.76872" lon="5.41068">
        <ele>377</ele>
        <time>2025-12-18T17:24:56Z</time>
      </trkpt>
      <trkpt lat="49.76852" lon="5.41085">
        <ele>375</ele>
        <time>2025-12-18T17:25:07Z</time>
      </trkpt>
      <trkpt lat="49.76842" lon="5.41095">
        <ele>373</ele>
        <time>2025-12-18T17:25:13Z</time>
      </trkpt>
      <trkpt lat="49.76808" lon="5.41131">
        <ele>368</ele>
        <time>2025-12-18T17:25:34Z</time>
      </trkpt>
      <trkpt lat="49.76796" lon="5.41138">
        <ele>366</ele>
        <time>2025-12-18T17:25:40Z</time>
      </trkpt>
      <trkpt lat="49.7674" lon="5.4114">
        <ele>361</ele>
        <time>2025-12-18T17:26:09Z</time>
      </trkpt>
      <trkpt lat="49.76737" lon="5.41138">
        <ele>360</ele>
        <time>2025-12-18T17:26:10Z</time>
      </trkpt>
      <trkpt lat="49.76734" lon="5.41132">
        <ele>360</ele>
        <time>2025-12-18T17:26:13Z</time>
      </trkpt>
      <trkpt lat="49.76732" lon="5.41122">
        <ele>359</ele>
        <time>2025-12-18T17:26:16Z</time>
      </trkpt>
      <trkpt lat="49.76731" lon="5.41114">
        <ele>359</ele>
        <time>2025-12-18T17:26:19Z</time>
      </trkpt>
      <trkpt lat="49.76728" lon="5.4111">
        <ele>359</ele>
        <time>2025-12-18T17:26:21Z</time>
      </trkpt>
      <trkpt lat="49.76723" lon="5.41106">
        <ele>358</ele>
        <time>2025-12-18T17:26:23Z</time>
      </trkpt>
      <trkpt lat="49.76669" lon="5.41101">
        <ele>353</ele>
        <time>2025-12-18T17:26:50Z</time>
      </trkpt>
      <trkpt lat="49.76656" lon="5.41089">
        <ele>352</ele>
        <time>2025-12-18T17:26:58Z</time>
      </trkpt>
      <trkpt lat="49.76642" lon="5.41073">
        <ele>351</ele>
        <time>2025-12-18T17:27:07Z</time>
      </trkpt>
      <trkpt lat="49.76663" lon="5.40969">
        <ele>347</ele>
        <time>2025-12-18T17:27:42Z</time>
      </trkpt>
      <trkpt lat="49.7668" lon="5.40885">
        <ele>347</ele>
        <time>2025-12-18T17:28:10Z</time>
      </trkpt>
      <trkpt lat="49.76688" lon="5.40811">
        <ele>347</ele>
        <time>2025-12-18T17:28:35Z</time>
      </trkpt>
      <trkpt lat="49.76699" lon="5.40736">
        <ele>348</ele>
        <time>2025-12-18T17:29:00Z</time>
      </trkpt>
      <trkpt lat="49.76699" lon="5.40692">
        <ele>347</ele>
        <time>2025-12-18T17:29:14Z</time>
      </trkpt>
      <trkpt lat="49.76691" lon="5.40619">
        <ele>346</ele>
        <time>2025-12-18T17:29:38Z</time>
      </trkpt>
      <trkpt lat="49.76693" lon="5.40593">
        <ele>346</ele>
        <time>2025-12-18T17:29:46Z</time>
      </trkpt>
      <trkpt lat="49.76699" lon="5.40576">
        <ele>346</ele>
        <time>2025-12-18T17:29:52Z</time>
      </trkpt>
      <trkpt lat="49.76708" lon="5.40564">
        <ele>347</ele>
        <time>2025-12-18T17:29:58Z</time>
      </trkpt>
      <trkpt lat="49.76711" lon="5.40557">
        <ele>347</ele>
        <time>2025-12-18T17:30:01Z</time>
      </trkpt>
      <trkpt lat="49.76713" lon="5.40548">
        <ele>347</ele>
        <time>2025-12-18T17:30:04Z</time>
      </trkpt>
      <trkpt lat="49.76712" lon="5.4054">
        <ele>347</ele>
        <time>2025-12-18T17:30:07Z</time>
      </trkpt>
      <trkpt lat="49.76703" lon="5.40517">
        <ele>346</ele>
        <time>2025-12-18T17:30:15Z</time>
      </trkpt>
      <trkpt lat="49.76671" lon="5.40454">
        <ele>345</ele>
        <time>2025-12-18T17:30:41Z</time>
      </trkpt>
      <trkpt lat="49.76642" lon="5.40371">
        <ele>345</ele>
        <time>2025-12-18T17:31:12Z</time>
      </trkpt>
      <trkpt lat="49.76631" lon="5.40323">
        <ele>345</ele>
        <time>2025-12-18T17:31:28Z</time>
      </trkpt>
      <trkpt lat="49.76617" lon="5.40253">
        <ele>347</ele>
        <time>2025-12-18T17:31:52Z</time>
      </trkpt>
      <trkpt lat="49.76612" lon="5.40236">
        <ele>348</ele>
        <time>2025-12-18T17:31:58Z</time>
      </trkpt>
      <trkpt lat="49.76602" lon="5.40218">
        <ele>347</ele>
        <time>2025-12-18T17:32:06Z</time>
      </trkpt>
      <trkpt lat="49.76594" lon="5.40206">
        <ele>347</ele>
        <time>2025-12-18T17:32:11Z</time>
      </trkpt>
      <trkpt lat="49.76579" lon="5.40181">
        <ele>346</ele>
        <time>2025-12-18T17:32:22Z</time>
      </trkpt>
      <trkpt lat="49.76548" lon="5.4011">
        <ele>346</ele>
        <time>2025-12-18T17:32:50Z</time>
      </trkpt>
      <trkpt lat="49.76523" lon="5.40133">
        <ele>343</ele>
        <time>2025-12-18T17:33:05Z</time>
      </trkpt>
      <trkpt lat="49.76509" lon="5.40153">
        <ele>342</ele>
        <time>2025-12-18T17:33:14Z</time>
      </trkpt>
      <trkpt lat="49.76502" lon="5.40135">
        <ele>341</ele>
        <time>2025-12-18T17:33:21Z</time>
      </trkpt>
      <trkpt lat="49.7649" lon="5.40105">
        <ele>341</ele>
        <time>2025-12-18T17:33:32Z</time>
      </trkpt>
      <trkpt lat="49.76475" lon="5.40071">
        <ele>342</ele>
        <time>2025-12-18T17:33:46Z</time>
      </trkpt>
      <trkpt lat="49.76461" lon="5.40048">
        <ele>341</ele>
        <time>2025-12-18T17:33:56Z</time>
      </trkpt>
      <trkpt lat="49.76437" lon="5.40009">
        <ele>340</ele>
        <time>2025-12-18T17:34:13Z</time>
      </trkpt>
      <trkpt lat="49.76424" lon="5.3997">
        <ele>339</ele>
        <time>2025-12-18T17:34:27Z</time>
      </trkpt>
      <trkpt lat="49.76418" lon="5.39941">
        <ele>338</ele>
        <time>2025-12-18T17:34:37Z</time>
      </trkpt>
      <trkpt lat="49.76408" lon="5.39937">
        <ele>339</ele>
        <time>2025-12-18T17:34:42Z</time>
      </trkpt>
      <trkpt lat="49.764" lon="5.39919">
        <ele>338</ele>
        <time>2025-12-18T17:34:50Z</time>
      </trkpt>
      <trkpt lat="49.76393" lon="5.39907">
        <ele>338</ele>
        <time>2025-12-18T17:34:55Z</time>
      </trkpt>
      <trkpt lat="49.76395" lon="5.39894">
        <ele>338</ele>
        <time>2025-12-18T17:34:59Z</time>
      </trkpt>
      <trkpt lat="49.76396" lon="5.39882">
        <ele>338</ele>
        <time>2025-12-18T17:35:03Z</time>
      </trkpt>
      <trkpt lat="49.76396" lon="5.39861">
        <ele>338</ele>
        <time>2025-12-18T17:35:10Z</time>
      </trkpt>
      <trkpt lat="49.76394" lon="5.39841">
        <ele>337</ele>
        <time>2025-12-18T17:35:16Z</time>
      </trkpt>
      <trkpt lat="49.76389" lon="5.39812">
        <ele>337</ele>
        <time>2025-12-18T17:35:26Z</time>
      </trkpt>
      <trkpt lat="49.76368" lon="5.39713">
        <ele>337</ele>
        <time>2025-12-18T17:36:00Z</time>
      </trkpt>
      <trkpt lat="49.76349" lon="5.39625">
        <ele>337</ele>
        <time>2025-12-18T17:36:30Z</time>
      </trkpt>
      <trkpt lat="49.76342" lon="5.39586">
        <ele>337</ele>
        <time>2025-12-18T17:36:43Z</time>
      </trkpt>
      <trkpt lat="49.76319" lon="5.39469">
        <ele>343</ele>
        <time>2025-12-18T17:37:22Z</time>
      </trkpt>
      <trkpt lat="49.76302" lon="5.39484">
        <ele>342</ele>
        <time>2025-12-18T17:37:32Z</time>
      </trkpt>
      <trkpt lat="49.76287" lon="5.39504">
        <ele>340</ele>
        <time>2025-12-18T17:37:42Z</time>
      </trkpt>
      <trkpt lat="49.76283" lon="5.39518">
        <ele>340</ele>
        <time>2025-12-18T17:37:47Z</time>
      </trkpt>
      <trkpt lat="49.76277" lon="5.39525">
        <ele>340</ele>
        <time>2025-12-18T17:37:51Z</time>
      </trkpt>
      <trkpt lat="49.76272" lon="5.39522">
        <ele>340</ele>
        <time>2025-12-18T17:37:53Z</time>
      </trkpt>
      <trkpt lat="49.7626" lon="5.39509">
        <ele>340</ele>
        <time>2025-12-18T17:38:01Z</time>
      </trkpt>
      <trkpt lat="49.76245" lon="5.39491">
        <ele>340</ele>
        <time>2025-12-18T17:38:10Z</time>
      </trkpt>
      <trkpt lat="49.76234" lon="5.39473">
        <ele>341</ele>
        <time>2025-12-18T17:38:18Z</time>
      </trkpt>
      <trkpt lat="49.76228" lon="5.39457">
        <ele>342</ele>
        <time>2025-12-18T17:38:24Z</time>
      </trkpt>
      <trkpt lat="49.76214" lon="5.39453">
        <ele>342</ele>
        <time>2025-12-18T17:38:31Z</time>
      </trkpt>
      <trkpt lat="49.76195" lon="5.39458">
        <ele>341</ele>
        <time>2025-12-18T17:38:41Z</time>
      </trkpt>
      <trkpt lat="49.76182" lon="5.39459">
        <ele>341</ele>
        <time>2025-12-18T17:38:48Z</time>
      </trkpt>
      <trkpt lat="49.7617" lon="5.39454">
        <ele>341</ele>
        <time>2025-12-18T17:38:54Z</time>
      </trkpt>
      <trkpt lat="49.76123" lon="5.39408">
        <ele>341</ele>
        <time>2025-12-18T17:39:22Z</time>
      </trkpt>
      <trkpt lat="49.76048" lon="5.39328">
        <ele>340</ele>
        <time>2025-12-18T17:40:07Z</time>
      </trkpt>
      <trkpt lat="49.75956" lon="5.39191">
        <ele>348</ele>
        <time>2025-12-18T17:41:11Z</time>
      </trkpt>
      <trkpt lat="49.7595" lon="5.3919">
        <ele>348</ele>
        <time>2025-12-18T17:41:14Z</time>
      </trkpt>
      <trkpt lat="49.75902" lon="5.392">
        <ele>346</ele>
        <time>2025-12-18T17:41:38Z</time>
      </trkpt>
      <trkpt lat="49.75865" lon="5.39203">
        <ele>348</ele>
        <time>2025-12-18T17:41:57Z</time>
      </trkpt>
      <trkpt lat="49.7576" lon="5.39168">
        <ele>345</ele>
        <time>2025-12-18T17:42:51Z</time>
      </trkpt>
      <trkpt lat="49.75666" lon="5.39089">
        <ele>342</ele>
        <time>2025-12-18T17:43:44Z</time>
      </trkpt>
      <trkpt lat="49.75623" lon="5.39065">
        <ele>346</ele>
        <time>2025-12-18T17:44:07Z</time>
      </trkpt>
      <trkpt lat="49.75616" lon="5.39062">
        <ele>346</ele>
        <time>2025-12-18T17:44:11Z</time>
      </trkpt>
      <trkpt lat="49.75605" lon="5.39058">
        <ele>347</ele>
        <time>2025-12-18T17:44:16Z</time>
      </trkpt>
      <trkpt lat="49.75604" lon="5.39048">
        <ele>349</ele>
        <time>2025-12-18T17:44:20Z</time>
      </trkpt>
      <trkpt lat="49.75612" lon="5.39035">
        <ele>352</ele>
        <time>2025-12-18T17:44:25Z</time>
      </trkpt>
      <trkpt lat="49.75627" lon="5.39028">
        <ele>353</ele>
        <time>2025-12-18T17:44:33Z</time>
      </trkpt>
      <trkpt lat="49.75644" lon="5.38981">
        <ele>361</ele>
        <time>2025-12-18T17:44:51Z</time>
      </trkpt>
      <trkpt lat="49.75658" lon="5.38931">
        <ele>371</ele>
        <time>2025-12-18T17:45:08Z</time>
      </trkpt>
      <trkpt lat="49.75686" lon="5.38783">
        <ele>383</ele>
        <time>2025-12-18T17:45:58Z</time>
      </trkpt>
      <trkpt lat="49.75684" lon="5.38734">
        <ele>386</ele>
        <time>2025-12-18T17:46:14Z</time>
      </trkpt>
      <trkpt lat="49.7568" lon="5.38726">
        <ele>386</ele>
        <time>2025-12-18T17:46:17Z</time>
      </trkpt>
      <trkpt lat="49.75664" lon="5.38694">
        <ele>388</ele>
        <time>2025-12-18T17:46:30Z</time>
      </trkpt>
      <trkpt lat="49.75639" lon="5.38651">
        <ele>392</ele>
        <time>2025-12-18T17:46:49Z</time>
      </trkpt>
      <trkpt lat="49.75631" lon="5.38643">
        <ele>393</ele>
        <time>2025-12-18T17:46:54Z</time>
      </trkpt>
      <trkpt lat="49.75651" lon="5.38709">
        <ele>389</ele>
        <time>2025-12-18T17:47:17Z</time>
      </trkpt>
      <trkpt lat="49.75662" lon="5.38754">
        <ele>386</ele>
        <time>2025-12-18T17:47:33Z</time>
      </trkpt>
      <trkpt lat="49.75663" lon="5.38799">
        <ele>384</ele>
        <time>2025-12-18T17:47:47Z</time>
      </trkpt>
      <trkpt lat="49.75661" lon="5.38837">
        <ele>382</ele>
        <time>2025-12-18T17:48:00Z</time>
      </trkpt>
      <trkpt lat="49.75657" lon="5.38888">
        <ele>377</ele>
        <time>2025-12-18T17:48:16Z</time>
      </trkpt>
      <trkpt lat="49.75645" lon="5.38921">
        <ele>374</ele>
        <time>2025-12-18T17:48:29Z</time>
      </trkpt>
      <trkpt lat="49.75636" lon="5.38946">
        <ele>370</ele>
        <time>2025-12-18T17:48:38Z</time>
      </trkpt>
      <trkpt lat="49.75627" lon="5.38956">
        <ele>368</ele>
        <time>2025-12-18T17:48:43Z</time>
      </trkpt>
      <trkpt lat="49.75618" lon="5.38964">
        <ele>367</ele>
        <time>2025-12-18T17:48:49Z</time>
      </trkpt>
      <trkpt lat="49.75598" lon="5.38972">
        <ele>366</ele>
        <time>2025-12-18T17:48:59Z</time>
      </trkpt>
      <trkpt lat="49.75585" lon="5.38974">
        <ele>367</ele>
        <time>2025-12-18T17:49:05Z</time>
      </trkpt>
      <trkpt lat="49.75558" lon="5.38972">
        <ele>365</ele>
        <time>2025-12-18T17:49:19Z</time>
      </trkpt>
      <trkpt lat="49.75535" lon="5.38956">
        <ele>366</ele>
        <time>2025-12-18T17:49:32Z</time>
      </trkpt>
      <trkpt lat="49.75511" lon="5.3892">
        <ele>371</ele>
        <time>2025-12-18T17:49:48Z</time>
      </trkpt>
      <trkpt lat="49.7548" lon="5.38859">
        <ele>374</ele>
        <time>2025-12-18T17:50:13Z</time>
      </trkpt>
      <trkpt lat="49.75473" lon="5.38827">
        <ele>376</ele>
        <time>2025-12-18T17:50:24Z</time>
      </trkpt>
      <trkpt lat="49.7547" lon="5.38791">
        <ele>378</ele>
        <time>2025-12-18T17:50:36Z</time>
      </trkpt>
      <trkpt lat="49.75464" lon="5.38763">
        <ele>378</ele>
        <time>2025-12-18T17:50:46Z</time>
      </trkpt>
      <trkpt lat="49.75423" lon="5.38656">
        <ele>383</ele>
        <time>2025-12-18T17:51:26Z</time>
      </trkpt>
      <trkpt lat="49.7537" lon="5.38527">
        <ele>386</ele>
        <time>2025-12-18T17:52:15Z</time>
      </trkpt>
      <trkpt lat="49.75344" lon="5.38473">
        <ele>387</ele>
        <time>2025-12-18T17:52:37Z</time>
      </trkpt>
      <trkpt lat="49.75334" lon="5.38447">
        <ele>389</ele>
        <time>2025-12-18T17:52:47Z</time>
      </trkpt>
      <trkpt lat="49.7532" lon="5.38418">
        <ele>391</ele>
        <time>2025-12-18T17:52:59Z</time>
      </trkpt>
      <trkpt lat="49.75301" lon="5.38387">
        <ele>393</ele>
        <time>2025-12-18T17:53:12Z</time>
      </trkpt>
      <trkpt lat="49.75256" lon="5.38325">
        <ele>396</ele>
        <time>2025-12-18T17:53:43Z</time>
      </trkpt>
      <trkpt lat="49.75227" lon="5.38294">
        <ele>396</ele>
        <time>2025-12-18T17:54:00Z</time>
      </trkpt>
      <trkpt lat="49.75202" lon="5.38272">
        <ele>397</ele>
        <time>2025-12-18T17:54:15Z</time>
      </trkpt>
      <trkpt lat="49.75176" lon="5.38241">
        <ele>400</ele>
        <time>2025-12-18T17:54:31Z</time>
      </trkpt>
      <trkpt lat="49.7516" lon="5.38212">
        <ele>402</ele>
        <time>2025-12-18T17:54:43Z</time>
      </trkpt>
      <trkpt lat="49.75142" lon="5.38154">
        <ele>408</ele>
        <time>2025-12-18T17:55:04Z</time>
      </trkpt>
      <trkpt lat="49.7514" lon="5.38118">
        <ele>409</ele>
        <time>2025-12-18T17:55:16Z</time>
      </trkpt>
      <trkpt lat="49.75142" lon="5.38056">
        <ele>411</ele>
        <time>2025-12-18T17:55:36Z</time>
      </trkpt>
      <trkpt lat="49.75145" lon="5.38011">
        <ele>412</ele>
        <time>2025-12-18T17:55:50Z</time>
      </trkpt>
      <trkpt lat="49.75126" lon="5.37973">
        <ele>415</ele>
        <time>2025-12-18T17:56:06Z</time>
      </trkpt>
      <trkpt lat="49.75104" lon="5.37943">
        <ele>418</ele>
        <time>2025-12-18T17:56:21Z</time>
      </trkpt>
      <trkpt lat="49.75095" lon="5.37936">
        <ele>418</ele>
        <time>2025-12-18T17:56:26Z</time>
      </trkpt>
      <trkpt lat="49.75075" lon="5.37931">
        <ele>419</ele>
        <time>2025-12-18T17:56:36Z</time>
      </trkpt>
      <trkpt lat="49.7507" lon="5.37931">
        <ele>419</ele>
        <time>2025-12-18T17:56:38Z</time>
      </trkpt>
      <trkpt lat="49.75021" lon="5.37918">
        <ele>421</ele>
        <time>2025-12-18T17:57:03Z</time>
      </trkpt>
      <trkpt lat="49.74987" lon="5.37922">
        <ele>420</ele>
        <time>2025-12-18T17:57:20Z</time>
      </trkpt>
      <trkpt lat="49.74927" lon="5.37929">
        <ele>418</ele>
        <time>2025-12-18T17:57:50Z</time>
      </trkpt>
      <trkpt lat="49.74867" lon="5.37922">
        <ele>414</ele>
        <time>2025-12-18T17:58:21Z</time>
      </trkpt>
      <trkpt lat="49.74755" lon="5.37838">
        <ele>407</ele>
        <time>2025-12-18T17:59:23Z</time>
      </trkpt>
      <trkpt lat="49.74726" lon="5.3782">
        <ele>405</ele>
        <time>2025-12-18T17:59:38Z</time>
      </trkpt>
      <trkpt lat="49.74702" lon="5.37784">
        <ele>404</ele>
        <time>2025-12-18T17:59:55Z</time>
      </trkpt>
      <trkpt lat="49.74689" lon="5.37761">
        <ele>404</ele>
        <time>2025-12-18T18:00:05Z</time>
      </trkpt>
      <trkpt lat="49.74658" lon="5.37718">
        <ele>406</ele>
        <time>2025-12-18T18:00:26Z</time>
      </trkpt>
      <trkpt lat="49.74644" lon="5.37693">
        <ele>408</ele>
        <time>2025-12-18T18:00:37Z</time>
      </trkpt>
      <trkpt lat="49.74629" lon="5.37698">
        <ele>407</ele>
        <time>2025-12-18T18:00:44Z</time>
      </trkpt>
      <trkpt lat="49.74618" lon="5.37694">
        <ele>407</ele>
        <time>2025-12-18T18:00:50Z</time>
      </trkpt>
      <trkpt lat="49.74592" lon="5.3769">
        <ele>407</ele>
        <time>2025-12-18T18:01:03Z</time>
      </trkpt>
      <trkpt lat="49.74567" lon="5.37708">
        <ele>405</ele>
        <time>2025-12-18T18:01:17Z</time>
      </trkpt>
      <trkpt lat="49.74535" lon="5.37726">
        <ele>403</ele>
        <time>2025-12-18T18:01:34Z</time>
      </trkpt>
      <trkpt lat="49.74511" lon="5.37734">
        <ele>403</ele>
        <time>2025-12-18T18:01:46Z</time>
      </trkpt>
      <trkpt lat="49.74482" lon="5.37732">
        <ele>403</ele>
        <time>2025-12-18T18:02:01Z</time>
      </trkpt>
      <trkpt lat="49.74453" lon="5.37748">
        <ele>403</ele>
        <time>2025-12-18T18:02:16Z</time>
      </trkpt>
      <trkpt lat="49.744" lon="5.37755">
        <ele>404</ele>
        <time>2025-12-18T18:02:43Z</time>
      </trkpt>
      <trkpt lat="49.74387" lon="5.37761">
        <ele>404</ele>
        <time>2025-12-18T18:02:49Z</time>
      </trkpt>
      <trkpt lat="49.74351" lon="5.37761">
        <ele>405</ele>
        <time>2025-12-18T18:03:07Z</time>
      </trkpt>
      <trkpt lat="49.74225" lon="5.37772">
        <ele>402</ele>
        <time>2025-12-18T18:04:11Z</time>
      </trkpt>
      <trkpt lat="49.74164" lon="5.37763">
        <ele>398</ele>
        <time>2025-12-18T18:04:41Z</time>
      </trkpt>
      <trkpt lat="49.74133" lon="5.37758">
        <ele>397</ele>
        <time>2025-12-18T18:04:57Z</time>
      </trkpt>
      <trkpt lat="49.74119" lon="5.3776">
        <ele>397</ele>
        <time>2025-12-18T18:05:04Z</time>
      </trkpt>
      <trkpt lat="49.74115" lon="5.3778">
        <ele>397</ele>
        <time>2025-12-18T18:05:11Z</time>
      </trkpt>
      <trkpt lat="49.74103" lon="5.37815">
        <ele>396</ele>
        <time>2025-12-18T18:05:24Z</time>
      </trkpt>
      <trkpt lat="49.74099" lon="5.37835">
        <ele>395</ele>
        <time>2025-12-18T18:05:30Z</time>
      </trkpt>
      <trkpt lat="49.74097" lon="5.37886">
        <ele>393</ele>
        <time>2025-12-18T18:05:47Z</time>
      </trkpt>
      <trkpt lat="49.74094" lon="5.37908">
        <ele>392</ele>
        <time>2025-12-18T18:05:54Z</time>
      </trkpt>
      <trkpt lat="49.74086" lon="5.37942">
        <ele>391</ele>
        <time>2025-12-18T18:06:06Z</time>
      </trkpt>
      <trkpt lat="49.74085" lon="5.37956">
        <ele>391</ele>
        <time>2025-12-18T18:06:10Z</time>
      </trkpt>
      <trkpt lat="49.74086" lon="5.3797">
        <ele>390</ele>
        <time>2025-12-18T18:06:15Z</time>
      </trkpt>
      <trkpt lat="49.74089" lon="5.37989">
        <ele>389</ele>
        <time>2025-12-18T18:06:21Z</time>
      </trkpt>
      <trkpt lat="49.74096" lon="5.38032">
        <ele>384</ele>
        <time>2025-12-18T18:06:36Z</time>
      </trkpt>
      <trkpt lat="49.74102" lon="5.38083">
        <ele>377</ele>
        <time>2025-12-18T18:06:52Z</time>
      </trkpt>
      <trkpt lat="49.74103" lon="5.38106">
        <ele>374</ele>
        <time>2025-12-18T18:07:00Z</time>
      </trkpt>
      <trkpt lat="49.74096" lon="5.38107">
        <ele>374</ele>
        <time>2025-12-18T18:07:03Z</time>
      </trkpt>
      <trkpt lat="49.74066" lon="5.38102">
        <ele>372</ele>
        <time>2025-12-18T18:07:18Z</time>
      </trkpt>
      <trkpt lat="49.7399" lon="5.38067">
        <ele>374</ele>
        <time>2025-12-18T18:07:58Z</time>
      </trkpt>
      <trkpt lat="49.73951" lon="5.38062">
        <ele>373</ele>
        <time>2025-12-18T18:08:18Z</time>
      </trkpt>
      <trkpt lat="49.73903" lon="5.38061">
        <ele>369</ele>
        <time>2025-12-18T18:08:42Z</time>
      </trkpt>
      <trkpt lat="49.73813" lon="5.38066">
        <ele>359</ele>
        <time>2025-12-18T18:09:27Z</time>
      </trkpt>
      <trkpt lat="49.73792" lon="5.38065">
        <ele>357</ele>
        <time>2025-12-18T18:09:37Z</time>
      </trkpt>
      <trkpt lat="49.73782" lon="5.38064">
        <ele>356</ele>
        <time>2025-12-18T18:09:42Z</time>
      </trkpt>
      <trkpt lat="49.73761" lon="5.3805">
        <ele>355</ele>
        <time>2025-12-18T18:09:54Z</time>
      </trkpt>
      <trkpt lat="49.73731" lon="5.38011">
        <ele>355</ele>
        <time>2025-12-18T18:10:13Z</time>
      </trkpt>
      <trkpt lat="49.73699" lon="5.37966">
        <ele>355</ele>
        <time>2025-12-18T18:10:35Z</time>
      </trkpt>
      <trkpt lat="49.73666" lon="5.37911">
        <ele>355</ele>
        <time>2025-12-18T18:10:59Z</time>
      </trkpt>
      <trkpt lat="49.73649" lon="5.37879">
        <ele>357</ele>
        <time>2025-12-18T18:11:13Z</time>
      </trkpt>
      <trkpt lat="49.73606" lon="5.37815">
        <ele>354</ele>
        <time>2025-12-18T18:11:42Z</time>
      </trkpt>
      <trkpt lat="49.73569" lon="5.37768">
        <ele>353</ele>
        <time>2025-12-18T18:12:06Z</time>
      </trkpt>
      <trkpt lat="49.73537" lon="5.37746">
        <ele>352</ele>
        <time>2025-12-18T18:12:24Z</time>
      </trkpt>
      <trkpt lat="49.73522" lon="5.37729">
        <ele>354</ele>
        <time>2025-12-18T18:12:33Z</time>
      </trkpt>
      <trkpt lat="49.7342" lon="5.37655">
        <ele>347</ele>
        <time>2025-12-18T18:13:30Z</time>
      </trkpt>
      <trkpt lat="49.73404" lon="5.37648">
        <ele>347</ele>
        <time>2025-12-18T18:13:38Z</time>
      </trkpt>
      <trkpt lat="49.73366" lon="5.37644">
        <ele>346</ele>
        <time>2025-12-18T18:13:57Z</time>
      </trkpt>
      <trkpt lat="49.73345" lon="5.37645">
        <ele>345</ele>
        <time>2025-12-18T18:14:08Z</time>
      </trkpt>
      <trkpt lat="49.73331" lon="5.37649">
        <ele>344</ele>
        <time>2025-12-18T18:14:15Z</time>
      </trkpt>
      <trkpt lat="49.73319" lon="5.37655">
        <ele>343</ele>
        <time>2025-12-18T18:14:21Z</time>
      </trkpt>
      <trkpt lat="49.73308" lon="5.37658">
        <ele>342</ele>
        <time>2025-12-18T18:14:27Z</time>
      </trkpt>
      <trkpt lat="49.73287" lon="5.37657">
        <ele>343</ele>
        <time>2025-12-18T18:14:37Z</time>
      </trkpt>
      <trkpt lat="49.73265" lon="5.37648">
        <ele>345</ele>
        <time>2025-12-18T18:14:48Z</time>
      </trkpt>
      <trkpt lat="49.73249" lon="5.37633">
        <ele>349</ele>
        <time>2025-12-18T18:14:58Z</time>
      </trkpt>
      <trkpt lat="49.73242" lon="5.37622">
        <ele>351</ele>
        <time>2025-12-18T18:15:03Z</time>
      </trkpt>
      <trkpt lat="49.73233" lon="5.37588">
        <ele>359</ele>
        <time>2025-12-18T18:15:15Z</time>
      </trkpt>
      <trkpt lat="49.73223" lon="5.37526">
        <ele>365</ele>
        <time>2025-12-18T18:15:35Z</time>
      </trkpt>
      <trkpt lat="49.73221" lon="5.37494">
        <ele>367</ele>
        <time>2025-12-18T18:15:46Z</time>
      </trkpt>
      <trkpt lat="49.7322" lon="5.3748">
        <ele>368</ele>
        <time>2025-12-18T18:15:50Z</time>
      </trkpt>
      <trkpt lat="49.7322" lon="5.3742">
        <ele>369</ele>
        <time>2025-12-18T18:16:10Z</time>
      </trkpt>
      <trkpt lat="49.73221" lon="5.37285">
        <ele>376</ele>
        <time>2025-12-18T18:16:53Z</time>
      </trkpt>
      <trkpt lat="49.73219" lon="5.37221">
        <ele>379</ele>
        <time>2025-12-18T18:17:14Z</time>
      </trkpt>
      <trkpt lat="49.7322" lon="5.37177">
        <ele>380</ele>
        <time>2025-12-18T18:17:28Z</time>
      </trkpt>
      <trkpt lat="49.7323" lon="5.37108">
        <ele>382</ele>
        <time>2025-12-18T18:17:51Z</time>
      </trkpt>
      <trkpt lat="49.7323" lon="5.37074">
        <ele>383</ele>
        <time>2025-12-18T18:18:02Z</time>
      </trkpt>
      <trkpt lat="49.73231" lon="5.37041">
        <ele>383</ele>
        <time>2025-12-18T18:18:13Z</time>
      </trkpt>
      <trkpt lat="49.73239" lon="5.37018">
        <ele>383</ele>
        <time>2025-12-18T18:18:21Z</time>
      </trkpt>
      <trkpt lat="49.7325" lon="5.36966">
        <ele>383</ele>
        <time>2025-12-18T18:18:39Z</time>
      </trkpt>
      <trkpt lat="49.73254" lon="5.36924">
        <ele>384</ele>
        <time>2025-12-18T18:18:53Z</time>
      </trkpt>
      <trkpt lat="49.7325" lon="5.36902">
        <ele>383</ele>
        <time>2025-12-18T18:19:00Z</time>
      </trkpt>
      <trkpt lat="49.73248" lon="5.36876">
        <ele>382</ele>
        <time>2025-12-18T18:19:09Z</time>
      </trkpt>
      <trkpt lat="49.73272" lon="5.36751">
        <ele>377</ele>
        <time>2025-12-18T18:19:51Z</time>
      </trkpt>
      <trkpt lat="49.73272" lon="5.36708">
        <ele>374</ele>
        <time>2025-12-18T18:20:05Z</time>
      </trkpt>
      <trkpt lat="49.73266" lon="5.36666">
        <ele>371</ele>
        <time>2025-12-18T18:20:19Z</time>
      </trkpt>
      <trkpt lat="49.73255" lon="5.36618">
        <ele>366</ele>
        <time>2025-12-18T18:20:35Z</time>
      </trkpt>
      <trkpt lat="49.73222" lon="5.36526">
        <ele>357</ele>
        <time>2025-12-18T18:21:09Z</time>
      </trkpt>
      <trkpt lat="49.73221" lon="5.36492">
        <ele>352</ele>
        <time>2025-12-18T18:21:20Z</time>
      </trkpt>
      <trkpt lat="49.73231" lon="5.36473">
        <ele>347</ele>
        <time>2025-12-18T18:21:28Z</time>
      </trkpt>
      <trkpt lat="49.73245" lon="5.36463">
        <ele>343</ele>
        <time>2025-12-18T18:21:36Z</time>
      </trkpt>
      <trkpt lat="49.73331" lon="5.36479">
        <ele>339</ele>
        <time>2025-12-18T18:22:19Z</time>
      </trkpt>
      <trkpt lat="49.73477" lon="5.36499">
        <ele>332</ele>
        <time>2025-12-18T18:23:33Z</time>
      </trkpt>
      <trkpt lat="49.73518" lon="5.36518">
        <ele>331</ele>
        <time>2025-12-18T18:23:54Z</time>
      </trkpt>
      <trkpt lat="49.73528" lon="5.36523">
        <ele>331</ele>
        <time>2025-12-18T18:23:59Z</time>
      </trkpt>
      <trkpt lat="49.73572" lon="5.36527">
        <ele>326</ele>
        <time>2025-12-18T18:24:21Z</time>
      </trkpt>
      <trkpt lat="49.73642" lon="5.36566">
        <ele>325</ele>
        <time>2025-12-18T18:24:58Z</time>
      </trkpt>
      <trkpt lat="49.7367" lon="5.36573">
        <ele>323</ele>
        <time>2025-12-18T18:25:13Z</time>
      </trkpt>
      <trkpt lat="49.73684" lon="5.36575">
        <ele>324</ele>
        <time>2025-12-18T18:25:20Z</time>
      </trkpt>
      <trkpt lat="49.7371" lon="5.36575">
        <ele>325</ele>
        <time>2025-12-18T18:25:33Z</time>
      </trkpt>
      <trkpt lat="49.73731" lon="5.36577">
        <ele>326</ele>
        <time>2025-12-18T18:25:43Z</time>
      </trkpt>
      <trkpt lat="49.73739" lon="5.36576">
        <ele>326</ele>
        <time>2025-12-18T18:25:47Z</time>
      </trkpt>
      <trkpt lat="49.73772" lon="5.36563">
        <ele>330</ele>
        <time>2025-12-18T18:26:04Z</time>
      </trkpt>
      <trkpt lat="49.7378" lon="5.36556">
        <ele>332</ele>
        <time>2025-12-18T18:26:09Z</time>
      </trkpt>
      <trkpt lat="49.73819" lon="5.36498">
        <ele>335</ele>
        <time>2025-12-18T18:26:36Z</time>
      </trkpt>
      <trkpt lat="49.73832" lon="5.36476">
        <ele>335</ele>
        <time>2025-12-18T18:26:46Z</time>
      </trkpt>
      <trkpt lat="49.7384" lon="5.36451">
        <ele>333</ele>
        <time>2025-12-18T18:26:55Z</time>
      </trkpt>
      <trkpt lat="49.73846" lon="5.36424">
        <ele>331</ele>
        <time>2025-12-18T18:27:04Z</time>
      </trkpt>
      <trkpt lat="49.73849" lon="5.36398">
        <ele>330</ele>
        <time>2025-12-18T18:27:12Z</time>
      </trkpt>
      <trkpt lat="49.7385" lon="5.36368">
        <ele>330</ele>
        <time>2025-12-18T18:27:22Z</time>
      </trkpt>
      <trkpt lat="49.73849" lon="5.36315">
        <ele>329</ele>
        <time>2025-12-18T18:27:39Z</time>
      </trkpt>
      <trkpt lat="49.73846" lon="5.3627">
        <ele>329</ele>
        <time>2025-12-18T18:27:54Z</time>
      </trkpt>
      <trkpt lat="49.73835" lon="5.36192">
        <ele>325</ele>
        <time>2025-12-18T18:28:20Z</time>
      </trkpt>
      <trkpt lat="49.73834" lon="5.36165">
        <ele>324</ele>
        <time>2025-12-18T18:28:28Z</time>
      </trkpt>
      <trkpt lat="49.73835" lon="5.36108">
        <ele>325</ele>
        <time>2025-12-18T18:28:47Z</time>
      </trkpt>
      <trkpt lat="49.73826" lon="5.3599">
        <ele>325</ele>
        <time>2025-12-18T18:29:25Z</time>
      </trkpt>
      <trkpt lat="49.73815" lon="5.35899">
        <ele>328</ele>
        <time>2025-12-18T18:29:55Z</time>
      </trkpt>
      <trkpt lat="49.73796" lon="5.35757">
        <ele>326</ele>
        <time>2025-12-18T18:30:42Z</time>
      </trkpt>
      <trkpt lat="49.73789" lon="5.35711">
        <ele>325</ele>
        <time>2025-12-18T18:30:57Z</time>
      </trkpt>
      <trkpt lat="49.73776" lon="5.35618">
        <ele>322</ele>
        <time>2025-12-18T18:31:28Z</time>
      </trkpt>
      <trkpt lat="49.73774" lon="5.35503">
        <ele>323</ele>
        <time>2025-12-18T18:32:05Z</time>
      </trkpt>
      <trkpt lat="49.73777" lon="5.35468">
        <ele>323</ele>
        <time>2025-12-18T18:32:17Z</time>
      </trkpt>
      <trkpt lat="49.73786" lon="5.35432">
        <ele>325</ele>
        <time>2025-12-18T18:32:29Z</time>
      </trkpt>
      <trkpt lat="49.738" lon="5.35387">
        <ele>327</ele>
        <time>2025-12-18T18:32:45Z</time>
      </trkpt>
      <trkpt lat="49.73814" lon="5.3533">
        <ele>325</ele>
        <time>2025-12-18T18:33:05Z</time>
      </trkpt>
      <trkpt lat="49.73828" lon="5.35289">
        <ele>323</ele>
        <time>2025-12-18T18:33:20Z</time>
      </trkpt>
      <trkpt lat="49.73847" lon="5.35242">
        <ele>319</ele>
        <time>2025-12-18T18:33:38Z</time>
      </trkpt>
      <trkpt lat="49.73861" lon="5.35184">
        <ele>318</ele>
        <time>2025-12-18T18:33:58Z</time>
      </trkpt>
      <trkpt lat="49.73867" lon="5.35146">
        <ele>318</ele>
        <time>2025-12-18T18:34:11Z</time>
      </trkpt>
      <trkpt lat="49.73872" lon="5.3513">
        <ele>319</ele>
        <time>2025-12-18T18:34:17Z</time>
      </trkpt>
      <trkpt lat="49.73879" lon="5.35118">
        <ele>319</ele>
        <time>2025-12-18T18:34:22Z</time>
      </trkpt>
      <trkpt lat="49.73887" lon="5.35117">
        <ele>319</ele>
        <time>2025-12-18T18:34:26Z</time>
      </trkpt>
      <trkpt lat="49.73893" lon="5.35111">
        <ele>320</ele>
        <time>2025-12-18T18:34:29Z</time>
      </trkpt>
      <trkpt lat="49.73902" lon="5.35091">
        <ele>320</ele>
        <time>2025-12-18T18:34:37Z</time>
      </trkpt>
      <trkpt lat="49.73902" lon="5.35088">
        <ele>320</ele>
        <time>2025-12-18T18:34:38Z</time>
      </trkpt>
      <trkpt lat="49.7391" lon="5.35059">
        <ele>319</ele>
        <time>2025-12-18T18:34:48Z</time>
      </trkpt>
      <trkpt lat="49.73935" lon="5.34989">
        <ele>318</ele>
        <time>2025-12-18T18:35:14Z</time>
      </trkpt>
      <trkpt lat="49.7394" lon="5.34971">
        <ele>318</ele>
        <time>2025-12-18T18:35:21Z</time>
      </trkpt>
      <trkpt lat="49.7394" lon="5.34955">
        <ele>317</ele>
        <time>2025-12-18T18:35:26Z</time>
      </trkpt>
      <trkpt lat="49.73944" lon="5.34954">
        <ele>318</ele>
        <time>2025-12-18T18:35:28Z</time>
      </trkpt>
      <trkpt lat="49.73949" lon="5.34951">
        <ele>319</ele>
        <time>2025-12-18T18:35:31Z</time>
      </trkpt>
      <trkpt lat="49.73963" lon="5.34936">
        <ele>321</ele>
        <time>2025-12-18T18:35:39Z</time>
      </trkpt>
      <trkpt lat="49.73989" lon="5.34904">
        <ele>323</ele>
        <time>2025-12-18T18:35:56Z</time>
      </trkpt>
      <trkpt lat="49.73997" lon="5.34899">
        <ele>324</ele>
        <time>2025-12-18T18:36:00Z</time>
      </trkpt>
      <trkpt lat="49.74004" lon="5.34897">
        <ele>325</ele>
        <time>2025-12-18T18:36:04Z</time>
      </trkpt>
      <trkpt lat="49.74019" lon="5.34873">
        <ele>324</ele>
        <time>2025-12-18T18:36:14Z</time>
      </trkpt>
      <trkpt lat="49.74065" lon="5.34834">
        <ele>327</ele>
        <time>2025-12-18T18:36:41Z</time>
      </trkpt>
      <trkpt lat="49.74101" lon="5.34793">
        <ele>324</ele>
        <time>2025-12-18T18:37:03Z</time>
      </trkpt>
      <trkpt lat="49.74113" lon="5.34779">
        <ele>322</ele>
        <time>2025-12-18T18:37:10Z</time>
      </trkpt>
      <trkpt lat="49.74168" lon="5.34748">
        <ele>320</ele>
        <time>2025-12-18T18:37:40Z</time>
      </trkpt>
      <trkpt lat="49.742" lon="5.34735">
        <ele>316</ele>
        <time>2025-12-18T18:37:56Z</time>
      </trkpt>
      <trkpt lat="49.74259" lon="5.34745">
        <ele>313</ele>
        <time>2025-12-18T18:38:26Z</time>
      </trkpt>
      <trkpt lat="49.74291" lon="5.34757">
        <ele>312</ele>
        <time>2025-12-18T18:38:43Z</time>
      </trkpt>
      <trkpt lat="49.74306" lon="5.34768">
        <ele>312</ele>
        <time>2025-12-18T18:38:51Z</time>
      </trkpt>
      <trkpt lat="49.74351" lon="5.34823">
        <ele>314</ele>
        <time>2025-12-18T18:39:20Z</time>
      </trkpt>
      <trkpt lat="49.74413" lon="5.34947">
        <ele>321</ele>
        <time>2025-12-18T18:40:10Z</time>
      </trkpt>
      <trkpt lat="49.74454" lon="5.34995">
        <ele>324</ele>
        <time>2025-12-18T18:40:36Z</time>
      </trkpt>
      <trkpt lat="49.74495" lon="5.35037">
        <ele>330</ele>
        <time>2025-12-18T18:41:01Z</time>
      </trkpt>
      <trkpt lat="49.7451" lon="5.35052">
        <ele>333</ele>
        <time>2025-12-18T18:41:09Z</time>
      </trkpt>
      <trkpt lat="49.74536" lon="5.35062">
        <ele>335</ele>
        <time>2025-12-18T18:41:23Z</time>
      </trkpt>
      <trkpt lat="49.74562" lon="5.35066">
        <ele>335</ele>
        <time>2025-12-18T18:41:36Z</time>
      </trkpt>
      <trkpt lat="49.74582" lon="5.35062">
        <ele>334</ele>
        <time>2025-12-18T18:41:46Z</time>
      </trkpt>
      <trkpt lat="49.74642" lon="5.35026">
        <ele>334</ele>
        <time>2025-12-18T18:42:18Z</time>
      </trkpt>
      <trkpt lat="49.74667" lon="5.35002">
        <ele>331</ele>
        <time>2025-12-18T18:42:33Z</time>
      </trkpt>
      <trkpt lat="49.74679" lon="5.34986">
        <ele>332</ele>
        <time>2025-12-18T18:42:41Z</time>
      </trkpt>
      <trkpt lat="49.74692" lon="5.34962">
        <ele>332</ele>
        <time>2025-12-18T18:42:51Z</time>
      </trkpt>
      <trkpt lat="49.74709" lon="5.34925">
        <ele>330</ele>
        <time>2025-12-18T18:43:06Z</time>
      </trkpt>
      <trkpt lat="49.74723" lon="5.34895">
        <ele>332</ele>
        <time>2025-12-18T18:43:18Z</time>
      </trkpt>
      <trkpt lat="49.74733" lon="5.34868">
        <ele>333</ele>
        <time>2025-12-18T18:43:28Z</time>
      </trkpt>
      <trkpt lat="49.74737" lon="5.34835">
        <ele>330</ele>
        <time>2025-12-18T18:43:39Z</time>
      </trkpt>
      <trkpt lat="49.74738" lon="5.34808">
        <ele>330</ele>
        <time>2025-12-18T18:43:47Z</time>
      </trkpt>
      <trkpt lat="49.74737" lon="5.34793">
        <ele>331</ele>
        <time>2025-12-18T18:43:52Z</time>
      </trkpt>
      <trkpt lat="49.74735" lon="5.34775">
        <ele>331</ele>
        <time>2025-12-18T18:43:58Z</time>
      </trkpt>
      <trkpt lat="49.74711" lon="5.34696">
        <ele>330</ele>
        <time>2025-12-18T18:44:26Z</time>
      </trkpt>
      <trkpt lat="49.74668" lon="5.34583">
        <ele>323</ele>
        <time>2025-12-18T18:45:09Z</time>
      </trkpt>
      <trkpt lat="49.74622" lon="5.34474">
        <ele>324</ele>
        <time>2025-12-18T18:45:51Z</time>
      </trkpt>
      <trkpt lat="49.74588" lon="5.34403">
        <ele>324</ele>
        <time>2025-12-18T18:46:19Z</time>
      </trkpt>
      <trkpt lat="49.74564" lon="5.3436">
        <ele>326</ele>
        <time>2025-12-18T18:46:38Z</time>
      </trkpt>
      <trkpt lat="49.74542" lon="5.3433">
        <ele>326</ele>
        <time>2025-12-18T18:46:52Z</time>
      </trkpt>
      <trkpt lat="49.74511" lon="5.34313">
        <ele>325</ele>
        <time>2025-12-18T18:47:09Z</time>
      </trkpt>
      <trkpt lat="49.74489" lon="5.3431">
        <ele>322</ele>
        <time>2025-12-18T18:47:20Z</time>
      </trkpt>
      <trkpt lat="49.74454" lon="5.34313">
        <ele>317</ele>
        <time>2025-12-18T18:47:38Z</time>
      </trkpt>
      <trkpt lat="49.7444" lon="5.34308">
        <ele>316</ele>
        <time>2025-12-18T18:47:45Z</time>
      </trkpt>
      <trkpt lat="49.74384" lon="5.3427">
        <ele>318</ele>
        <time>2025-12-18T18:48:15Z</time>
      </trkpt>
      <trkpt lat="49.74376" lon="5.34259">
        <ele>319</ele>
        <time>2025-12-18T18:48:21Z</time>
      </trkpt>
      <trkpt lat="49.74373" lon="5.34253">
        <ele>320</ele>
        <time>2025-12-18T18:48:23Z</time>
      </trkpt>
      <trkpt lat="49.74373" lon="5.34244">
        <ele>320</ele>
        <time>2025-12-18T18:48:26Z</time>
      </trkpt>
      <trkpt lat="49.74374" lon="5.34225">
        <ele>321</ele>
        <time>2025-12-18T18:48:32Z</time>
      </trkpt>
      <trkpt lat="49.7438" lon="5.3418">
        <ele>324</ele>
        <time>2025-12-18T18:48:47Z</time>
      </trkpt>
      <trkpt lat="49.74383" lon="5.3414">
        <ele>325</ele>
        <time>2025-12-18T18:49:00Z</time>
      </trkpt>
      <trkpt lat="49.74378" lon="5.34091">
        <ele>325</ele>
        <time>2025-12-18T18:49:16Z</time>
      </trkpt>
      <trkpt lat="49.74336" lon="5.33805">
        <ele>319</ele>
        <time>2025-12-18T18:50:51Z</time>
      </trkpt>
      <trkpt lat="49.74331" lon="5.33765">
        <ele>319</ele>
        <time>2025-12-18T18:51:04Z</time>
      </trkpt>
      <trkpt lat="49.74322" lon="5.33631">
        <ele>322</ele>
        <time>2025-12-18T18:51:48Z</time>
      </trkpt>
      <trkpt lat="49.74317" lon="5.33585">
        <ele>325</ele>
        <time>2025-12-18T18:52:03Z</time>
      </trkpt>
      <trkpt lat="49.74306" lon="5.33538">
        <ele>327</ele>
        <time>2025-12-18T18:52:19Z</time>
      </trkpt>
      <trkpt lat="49.74292" lon="5.33495">
        <ele>325</ele>
        <time>2025-12-18T18:52:35Z</time>
      </trkpt>
      <trkpt lat="49.74267" lon="5.33407">
        <ele>319</ele>
        <time>2025-12-18T18:53:06Z</time>
      </trkpt>
      <trkpt lat="49.74221" lon="5.33255">
        <ele>322</ele>
        <time>2025-12-18T18:54:00Z</time>
      </trkpt>
      <trkpt lat="49.7418" lon="5.33126">
        <ele>321</ele>
        <time>2025-12-18T18:54:46Z</time>
      </trkpt>
      <trkpt lat="49.74177" lon="5.33113">
        <ele>320</ele>
        <time>2025-12-18T18:54:51Z</time>
      </trkpt>
      <trkpt lat="49.7413" lon="5.3298">
        <ele>321</ele>
        <time>2025-12-18T18:55:40Z</time>
      </trkpt>
      <trkpt lat="49.7409" lon="5.32852">
        <ele>320</ele>
        <time>2025-12-18T18:56:26Z</time>
      </trkpt>
      <trkpt lat="49.74079" lon="5.32823">
        <ele>320</ele>
        <time>2025-12-18T18:56:37Z</time>
      </trkpt>
      <trkpt lat="49.74064" lon="5.32779">
        <ele>320</ele>
        <time>2025-12-18T18:56:53Z</time>
      </trkpt>
      <trkpt lat="49.74032" lon="5.32659">
        <ele>318</ele>
        <time>2025-12-18T18:57:35Z</time>
      </trkpt>
      <trkpt lat="49.74033" lon="5.32634">
        <ele>319</ele>
        <time>2025-12-18T18:57:43Z</time>
      </trkpt>
      <trkpt lat="49.74039" lon="5.32623">
        <ele>320</ele>
        <time>2025-12-18T18:57:48Z</time>
      </trkpt>
      <trkpt lat="49.74047" lon="5.32614">
        <ele>322</ele>
        <time>2025-12-18T18:57:53Z</time>
      </trkpt>
      <trkpt lat="49.74059" lon="5.32608">
        <ele>323</ele>
        <time>2025-12-18T18:57:59Z</time>
      </trkpt>
      <trkpt lat="49.74087" lon="5.32703">
        <ele>327</ele>
        <time>2025-12-18T18:58:33Z</time>
      </trkpt>
      <trkpt lat="49.74098" lon="5.32748">
        <ele>327</ele>
        <time>2025-12-18T18:58:48Z</time>
      </trkpt>
      <trkpt lat="49.74106" lon="5.32766">
        <ele>328</ele>
        <time>2025-12-18T18:58:55Z</time>
      </trkpt>
      <trkpt lat="49.74112" lon="5.32776">
        <ele>329</ele>
        <time>2025-12-18T18:59:00Z</time>
      </trkpt>
      <trkpt lat="49.74118" lon="5.32786">
        <ele>330</ele>
        <time>2025-12-18T18:59:04Z</time>
      </trkpt>
      <trkpt lat="49.74134" lon="5.32797">
        <ele>333</ele>
        <time>2025-12-18T18:59:13Z</time>
      </trkpt>
      <trkpt lat="49.74154" lon="5.32804">
        <ele>338</ele>
        <time>2025-12-18T18:59:23Z</time>
      </trkpt>
      <trkpt lat="49.74184" lon="5.32784">
        <ele>342</ele>
        <time>2025-12-18T18:59:39Z</time>
      </trkpt>
      <trkpt lat="49.74204" lon="5.3276">
        <ele>344</ele>
        <time>2025-12-18T18:59:52Z</time>
      </trkpt>
      <trkpt lat="49.74214" lon="5.32752">
        <ele>346</ele>
        <time>2025-12-18T18:59:58Z</time>
      </trkpt>
      <trkpt lat="49.74229" lon="5.32747">
        <ele>347</ele>
        <time>2025-12-18T19:00:05Z</time>
      </trkpt>
      <trkpt lat="49.74291" lon="5.32744">
        <ele>355</ele>
        <time>2025-12-18T19:00:36Z</time>
      </trkpt>
      <trkpt lat="49.74344" lon="5.32763">
        <ele>360</ele>
        <time>2025-12-18T19:01:04Z</time>
      </trkpt>
      <trkpt lat="49.74372" lon="5.32788">
        <ele>362</ele>
        <time>2025-12-18T19:01:20Z</time>
      </trkpt>
      <trkpt lat="49.74425" lon="5.32817">
        <ele>367</ele>
        <time>2025-12-18T19:01:48Z</time>
      </trkpt>
      <trkpt lat="49.7445" lon="5.32839">
        <ele>367</ele>
        <time>2025-12-18T19:02:02Z</time>
      </trkpt>
      <trkpt lat="49.7447" lon="5.32863">
        <ele>368</ele>
        <time>2025-12-18T19:02:15Z</time>
      </trkpt>
      <trkpt lat="49.74494" lon="5.32889">
        <ele>370</ele>
        <time>2025-12-18T19:02:30Z</time>
      </trkpt>
      <trkpt lat="49.74529" lon="5.32921">
        <ele>370</ele>
        <time>2025-12-18T19:02:50Z</time>
      </trkpt>
      <trkpt lat="49.74564" lon="5.32964">
        <ele>372</ele>
        <time>2025-12-18T19:03:12Z</time>
      </trkpt>
      <trkpt lat="49.74616" lon="5.33041">
        <ele>379</ele>
        <time>2025-12-18T19:03:48Z</time>
      </trkpt>
      <trkpt lat="49.74633" lon="5.33058">
        <ele>381</ele>
        <time>2025-12-18T19:03:59Z</time>
      </trkpt>
      <trkpt lat="49.74647" lon="5.33089">
        <ele>384</ele>
        <time>2025-12-18T19:04:11Z</time>
      </trkpt>
      <trkpt lat="49.74661" lon="5.33111">
        <ele>386</ele>
        <time>2025-12-18T19:04:21Z</time>
      </trkpt>
      <trkpt lat="49.74711" lon="5.33154">
        <ele>393</ele>
        <time>2025-12-18T19:04:49Z</time>
      </trkpt>
      <trkpt lat="49.74763" lon="5.33196">
        <ele>402</ele>
        <time>2025-12-18T19:05:19Z</time>
      </trkpt>
      <trkpt lat="49.74802" lon="5.33218">
        <ele>406</ele>
        <time>2025-12-18T19:05:39Z</time>
      </trkpt>
      <trkpt lat="49.74814" lon="5.3323">
        <ele>408</ele>
        <time>2025-12-18T19:05:47Z</time>
      </trkpt>
      <trkpt lat="49.74819" lon="5.33241">
        <ele>410</ele>
        <time>2025-12-18T19:05:51Z</time>
      </trkpt>
      <trkpt lat="49.74823" lon="5.33246">
        <ele>411</ele>
        <time>2025-12-18T19:05:54Z</time>
      </trkpt>
      <trkpt lat="49.74831" lon="5.33247">
        <ele>411</ele>
        <time>2025-12-18T19:05:58Z</time>
      </trkpt>
      <trkpt lat="49.74846" lon="5.33267">
        <ele>414</ele>
        <time>2025-12-18T19:06:07Z</time>
      </trkpt>
      <trkpt lat="49.7489" lon="5.33444">
        <ele>425</ele>
        <time>2025-12-18T19:07:09Z</time>
      </trkpt>
      <trkpt lat="49.7489" lon="5.33467">
        <ele>426</ele>
        <time>2025-12-18T19:07:16Z</time>
      </trkpt>
      <trkpt lat="49.74893" lon="5.33499">
        <ele>427</ele>
        <time>2025-12-18T19:07:27Z</time>
      </trkpt>
      <trkpt lat="49.74908" lon="5.33544">
        <ele>429</ele>
        <time>2025-12-18T19:07:43Z</time>
      </trkpt>
      <trkpt lat="49.74916" lon="5.33591">
        <ele>431</ele>
        <time>2025-12-18T19:07:59Z</time>
      </trkpt>
      <trkpt lat="49.74918" lon="5.33639">
        <ele>433</ele>
        <time>2025-12-18T19:08:14Z</time>
      </trkpt>
      <trkpt lat="49.74929" lon="5.33683">
        <ele>433</ele>
        <time>2025-12-18T19:08:30Z</time>
      </trkpt>
      <trkpt lat="49.74937" lon="5.33723">
        <ele>432</ele>
        <time>2025-12-18T19:08:43Z</time>
      </trkpt>
      <trkpt lat="49.74937" lon="5.33765">
        <ele>432</ele>
        <time>2025-12-18T19:08:57Z</time>
      </trkpt>
      <trkpt lat="49.7494" lon="5.338">
        <ele>431</ele>
        <time>2025-12-18T19:09:08Z</time>
      </trkpt>
      <trkpt lat="49.74947" lon="5.3384">
        <ele>430</ele>
        <time>2025-12-18T19:09:22Z</time>
      </trkpt>
      <trkpt lat="49.74949" lon="5.33868">
        <ele>430</ele>
        <time>2025-12-18T19:09:31Z</time>
      </trkpt>
      <trkpt lat="49.74943" lon="5.33896">
        <ele>431</ele>
        <time>2025-12-18T19:09:40Z</time>
      </trkpt>
      <trkpt lat="49.74944" lon="5.33921">
        <ele>431</ele>
        <time>2025-12-18T19:09:48Z</time>
      </trkpt>
      <trkpt lat="49.74939" lon="5.33949">
        <ele>431</ele>
        <time>2025-12-18T19:09:58Z</time>
      </trkpt>
      <trkpt lat="49.7494" lon="5.33963">
        <ele>431</ele>
        <time>2025-12-18T19:10:02Z</time>
      </trkpt>
      <trkpt lat="49.74952" lon="5.33979">
        <ele>431</ele>
        <time>2025-12-18T19:10:10Z</time>
      </trkpt>
      <trkpt lat="49.7496" lon="5.33997">
        <ele>431</ele>
        <time>2025-12-18T19:10:17Z</time>
      </trkpt>
      <trkpt lat="49.74965" lon="5.3402">
        <ele>430</ele>
        <time>2025-12-18T19:10:25Z</time>
      </trkpt>
      <trkpt lat="49.74971" lon="5.3403">
        <ele>429</ele>
        <time>2025-12-18T19:10:29Z</time>
      </trkpt>
      <trkpt lat="49.7498" lon="5.34056">
        <ele>427</ele>
        <time>2025-12-18T19:10:39Z</time>
      </trkpt>
      <trkpt lat="49.74984" lon="5.34072">
        <ele>426</ele>
        <time>2025-12-18T19:10:45Z</time>
      </trkpt>
      <trkpt lat="49.74984" lon="5.34089">
        <ele>426</ele>
        <time>2025-12-18T19:10:50Z</time>
      </trkpt>
      <trkpt lat="49.74979" lon="5.34121">
        <ele>426</ele>
        <time>2025-12-18T19:11:01Z</time>
      </trkpt>
      <trkpt lat="49.74981" lon="5.34148">
        <ele>426</ele>
        <time>2025-12-18T19:11:09Z</time>
      </trkpt>
      <trkpt lat="49.74984" lon="5.34159">
        <ele>426</ele>
        <time>2025-12-18T19:11:13Z</time>
      </trkpt>
      <trkpt lat="49.75" lon="5.34212">
        <ele>424</ele>
        <time>2025-12-18T19:11:32Z</time>
      </trkpt>
      <trkpt lat="49.75009" lon="5.3423">
        <ele>423</ele>
        <time>2025-12-18T19:11:40Z</time>
      </trkpt>
      <trkpt lat="49.75025" lon="5.34278">
        <ele>421</ele>
        <time>2025-12-18T19:11:57Z</time>
      </trkpt>
      <trkpt lat="49.75026" lon="5.34303">
        <ele>420</ele>
        <time>2025-12-18T19:12:05Z</time>
      </trkpt>
      <trkpt lat="49.75021" lon="5.34332">
        <ele>419</ele>
        <time>2025-12-18T19:12:15Z</time>
      </trkpt>
      <trkpt lat="49.75007" lon="5.34373">
        <ele>418</ele>
        <time>2025-12-18T19:12:30Z</time>
      </trkpt>
      <trkpt lat="49.75013" lon="5.34393">
        <ele>418</ele>
        <time>2025-12-18T19:12:37Z</time>
      </trkpt>
      <trkpt lat="49.75015" lon="5.34431">
        <ele>417</ele>
        <time>2025-12-18T19:12:49Z</time>
      </trkpt>
      <trkpt lat="49.75011" lon="5.34462">
        <ele>416</ele>
        <time>2025-12-18T19:13:00Z</time>
      </trkpt>
      <trkpt lat="49.75004" lon="5.34502">
        <ele>413</ele>
        <time>2025-12-18T19:13:13Z</time>
      </trkpt>
      <trkpt lat="49.74987" lon="5.34568">
        <ele>411</ele>
        <time>2025-12-18T19:13:36Z</time>
      </trkpt>
      <trkpt lat="49.74982" lon="5.34612">
        <ele>411</ele>
        <time>2025-12-18T19:13:50Z</time>
      </trkpt>
      <trkpt lat="49.74972" lon="5.3465">
        <ele>411</ele>
        <time>2025-12-18T19:14:04Z</time>
      </trkpt>
      <trkpt lat="49.74965" lon="5.34701">
        <ele>410</ele>
        <time>2025-12-18T19:14:21Z</time>
      </trkpt>
      <trkpt lat="49.74952" lon="5.34761">
        <ele>410</ele>
        <time>2025-12-18T19:14:41Z</time>
      </trkpt>
      <trkpt lat="49.74934" lon="5.34835">
        <ele>408</ele>
        <time>2025-12-18T19:15:07Z</time>
      </trkpt>
      <trkpt lat="49.74904" lon="5.34914">
        <ele>404</ele>
        <time>2025-12-18T19:15:36Z</time>
      </trkpt>
      <trkpt lat="49.74871" lon="5.34989">
        <ele>403</ele>
        <time>2025-12-18T19:16:06Z</time>
      </trkpt>
      <trkpt lat="49.74792" lon="5.35107">
        <ele>398</ele>
        <time>2025-12-18T19:17:00Z</time>
      </trkpt>
      <trkpt lat="49.74743" lon="5.35173">
        <ele>399</ele>
        <time>2025-12-18T19:17:33Z</time>
      </trkpt>
      <trkpt lat="49.74683" lon="5.35218">
        <ele>394</ele>
        <time>2025-12-18T19:18:06Z</time>
      </trkpt>
      <trkpt lat="49.74632" lon="5.3526">
        <ele>394</ele>
        <time>2025-12-18T19:18:35Z</time>
      </trkpt>
      <trkpt lat="49.74601" lon="5.35272">
        <ele>391</ele>
        <time>2025-12-18T19:18:51Z</time>
      </trkpt>
      <trkpt lat="49.74547" lon="5.35281">
        <ele>389</ele>
        <time>2025-12-18T19:19:18Z</time>
      </trkpt>
      <trkpt lat="49.74509" lon="5.35284">
        <ele>389</ele>
        <time>2025-12-18T19:19:37Z</time>
      </trkpt>
      <trkpt lat="49.74483" lon="5.35263">
        <ele>386</ele>
        <time>2025-12-18T19:19:52Z</time>
      </trkpt>
      <trkpt lat="49.74448" lon="5.35234">
        <ele>383</ele>
        <time>2025-12-18T19:20:12Z</time>
      </trkpt>
      <trkpt lat="49.7438" lon="5.35188">
        <ele>372</ele>
        <time>2025-12-18T19:20:49Z</time>
      </trkpt>
      <trkpt lat="49.74354" lon="5.35181">
        <ele>368</ele>
        <time>2025-12-18T19:21:02Z</time>
      </trkpt>
      <trkpt lat="49.74294" lon="5.35179">
        <ele>363</ele>
        <time>2025-12-18T19:21:32Z</time>
      </trkpt>
      <trkpt lat="49.74262" lon="5.35162">
        <ele>358</ele>
        <time>2025-12-18T19:21:49Z</time>
      </trkpt>
      <trkpt lat="49.7426" lon="5.35161">
        <ele>358</ele>
        <time>2025-12-18T19:21:50Z</time>
      </trkpt>
      <trkpt lat="49.74228" lon="5.35128">
        <ele>350</ele>
        <time>2025-12-18T19:22:10Z</time>
      </trkpt>
      <trkpt lat="49.74204" lon="5.35092">
        <ele>343</ele>
        <time>2025-12-18T19:22:26Z</time>
      </trkpt>
      <trkpt lat="49.7414" lon="5.35206">
        <ele>354</ele>
        <time>2025-12-18T19:23:15Z</time>
      </trkpt>
      <trkpt lat="49.74127" lon="5.35208">
        <ele>353</ele>
        <time>2025-12-18T19:23:22Z</time>
      </trkpt>
      <trkpt lat="49.74113" lon="5.35206">
        <ele>352</ele>
        <time>2025-12-18T19:23:29Z</time>
      </trkpt>
      <trkpt lat="49.74102" lon="5.35208">
        <ele>351</ele>
        <time>2025-12-18T19:23:34Z</time>
      </trkpt>
      <trkpt lat="49.7409" lon="5.35205">
        <ele>350</ele>
        <time>2025-12-18T19:23:40Z</time>
      </trkpt>
      <trkpt lat="49.74083" lon="5.35219">
        <ele>351</ele>
        <time>2025-12-18T19:23:46Z</time>
      </trkpt>
      <trkpt lat="49.74077" lon="5.35237">
        <ele>351</ele>
        <time>2025-12-18T19:23:53Z</time>
      </trkpt>
      <trkpt lat="49.7407" lon="5.35232">
        <ele>349</ele>
        <time>2025-12-18T19:23:56Z</time>
      </trkpt>
      <trkpt lat="49.74134" lon="5.35309">
        <ele>363</ele>
        <time>2025-12-18T19:24:37Z</time>
      </trkpt>
      <trkpt lat="49.74156" lon="5.35336">
        <ele>369</ele>
        <time>2025-12-18T19:24:51Z</time>
      </trkpt>
      <trkpt lat="49.74219" lon="5.35356">
        <ele>378</ele>
        <time>2025-12-18T19:25:23Z</time>
      </trkpt>
      <trkpt lat="49.74365" lon="5.35415">
        <ele>397</ele>
        <time>2025-12-18T19:26:39Z</time>
      </trkpt>
      <trkpt lat="49.74447" lon="5.35422">
        <ele>401</ele>
        <time>2025-12-18T19:27:20Z</time>
      </trkpt>
      <trkpt lat="49.74523" lon="5.35454">
        <ele>400</ele>
        <time>2025-12-18T19:27:59Z</time>
      </trkpt>
      <trkpt lat="49.74621" lon="5.35532">
        <ele>402</ele>
        <time>2025-12-18T19:28:54Z</time>
      </trkpt>
      <trkpt lat="49.7472" lon="5.35676">
        <ele>398</ele>
        <time>2025-12-18T19:30:02Z</time>
      </trkpt>
      <trkpt lat="49.74808" lon="5.35818">
        <ele>401</ele>
        <time>2025-12-18T19:31:06Z</time>
      </trkpt>
      <trkpt lat="49.74939" lon="5.36015">
        <ele>396</ele>
        <time>2025-12-18T19:32:37Z</time>
      </trkpt>
      <trkpt lat="49.74995" lon="5.36069">
        <ele>389</ele>
        <time>2025-12-18T19:33:10Z</time>
      </trkpt>
      <trkpt lat="49.7501" lon="5.36107">
        <ele>389</ele>
        <time>2025-12-18T19:33:25Z</time>
      </trkpt>
      <trkpt lat="49.7501" lon="5.36107">
        <ele>389</ele>
        <time>2025-12-18T19:33:25Z</time>
      </trkpt>
      <trkpt lat="49.75021" lon="5.36132">
        <ele>390</ele>
        <time>2025-12-18T19:33:35Z</time>
      </trkpt>
      <trkpt lat="49.75039" lon="5.36158">
        <ele>393</ele>
        <time>2025-12-18T19:33:47Z</time>
      </trkpt>
      <trkpt lat="49.75091" lon="5.36266">
        <ele>401</ele>
        <time>2025-12-18T19:34:31Z</time>
      </trkpt>
      <trkpt lat="49.75122" lon="5.36447">
        <ele>409</ele>
        <time>2025-12-18T19:35:31Z</time>
      </trkpt>
      <trkpt lat="49.75142" lon="5.36526">
        <ele>414</ele>
        <time>2025-12-18T19:35:59Z</time>
      </trkpt>
      <trkpt lat="49.75216" lon="5.36679">
        <ele>419</ele>
        <time>2025-12-18T19:37:00Z</time>
      </trkpt>
      <trkpt lat="49.75291" lon="5.36794">
        <ele>421</ele>
        <time>2025-12-18T19:37:53Z</time>
      </trkpt>
      <trkpt lat="49.75416" lon="5.36913">
        <ele>425</ele>
        <time>2025-12-18T19:39:07Z</time>
      </trkpt>
      <trkpt lat="49.75447" lon="5.36926">
        <ele>426</ele>
        <time>2025-12-18T19:39:23Z</time>
      </trkpt>
      <trkpt lat="49.75485" lon="5.36938">
        <ele>427</ele>
        <time>2025-12-18T19:39:42Z</time>
      </trkpt>
      <trkpt lat="49.75515" lon="5.36966">
        <ele>428</ele>
        <time>2025-12-18T19:40:00Z</time>
      </trkpt>
      <trkpt lat="49.75541" lon="5.37003">
        <ele>428</ele>
        <time>2025-12-18T19:40:17Z</time>
      </trkpt>
      <trkpt lat="49.75545" lon="5.37024">
        <ele>429</ele>
        <time>2025-12-18T19:40:24Z</time>
      </trkpt>
      <trkpt lat="49.75568" lon="5.37019">
        <ele>429</ele>
        <time>2025-12-18T19:40:36Z</time>
      </trkpt>
      <trkpt lat="49.75575" lon="5.37078">
        <ele>430</ele>
        <time>2025-12-18T19:40:55Z</time>
      </trkpt>
      <trkpt lat="49.75595" lon="5.37108">
        <ele>431</ele>
        <time>2025-12-18T19:41:09Z</time>
      </trkpt>
      <trkpt lat="49.75636" lon="5.37197">
        <ele>433</ele>
        <time>2025-12-18T19:41:45Z</time>
      </trkpt>
      <trkpt lat="49.75667" lon="5.37285">
        <ele>433</ele>
        <time>2025-12-18T19:42:17Z</time>
      </trkpt>
      <trkpt lat="49.75688" lon="5.37364">
        <ele>434</ele>
        <time>2025-12-18T19:42:45Z</time>
      </trkpt>
      <trkpt lat="49.75711" lon="5.37458">
        <ele>433</ele>
        <time>2025-12-18T19:43:17Z</time>
      </trkpt>
      <trkpt lat="49.75716" lon="5.37504">
        <ele>432</ele>
        <time>2025-12-18T19:43:32Z</time>
      </trkpt>
      <trkpt lat="49.75725" lon="5.37546">
        <ele>432</ele>
        <time>2025-12-18T19:43:47Z</time>
      </trkpt>
      <trkpt lat="49.75746" lon="5.37624">
        <ele>432</ele>
        <time>2025-12-18T19:44:14Z</time>
      </trkpt>
      <trkpt lat="49.75794" lon="5.37783">
        <ele>429</ele>
        <time>2025-12-18T19:45:11Z</time>
      </trkpt>
      <trkpt lat="49.75835" lon="5.37882">
        <ele>429</ele>
        <time>2025-12-18T19:45:49Z</time>
      </trkpt>
      <trkpt lat="49.75862" lon="5.37923">
        <ele>427</ele>
        <time>2025-12-18T19:46:08Z</time>
      </trkpt>
      <trkpt lat="49.75899" lon="5.37974">
        <ele>423</ele>
        <time>2025-12-18T19:46:32Z</time>
      </trkpt>
      <trkpt lat="49.75923" lon="5.37997">
        <ele>419</ele>
        <time>2025-12-18T19:46:46Z</time>
      </trkpt>
      <trkpt lat="49.75947" lon="5.38035">
        <ele>411</ele>
        <time>2025-12-18T19:47:04Z</time>
      </trkpt>
      <trkpt lat="49.76016" lon="5.38128">
        <ele>395</ele>
        <time>2025-12-18T19:47:49Z</time>
      </trkpt>
      <trkpt lat="49.76032" lon="5.38149">
        <ele>395</ele>
        <time>2025-12-18T19:48:00Z</time>
      </trkpt>
      <trkpt lat="49.76071" lon="5.38261">
        <ele>392</ele>
        <time>2025-12-18T19:48:41Z</time>
      </trkpt>
      <trkpt lat="49.7611" lon="5.38504">
        <ele>385</ele>
        <time>2025-12-18T19:50:02Z</time>
      </trkpt>
      <trkpt lat="49.76152" lon="5.38969">
        <ele>381</ele>
        <time>2025-12-18T19:52:34Z</time>
      </trkpt>
      <trkpt lat="49.76158" lon="5.39">
        <ele>382</ele>
        <time>2025-12-18T19:52:44Z</time>
      </trkpt>
      <trkpt lat="49.76162" lon="5.39028">
        <ele>380</ele>
        <time>2025-12-18T19:52:53Z</time>
      </trkpt>
      <trkpt lat="49.76172" lon="5.39139">
        <ele>369</ele>
        <time>2025-12-18T19:53:30Z</time>
      </trkpt>
      <trkpt lat="49.7618" lon="5.39213">
        <ele>359</ele>
        <time>2025-12-18T19:53:54Z</time>
      </trkpt>
      <trkpt lat="49.76198" lon="5.39322">
        <ele>350</ele>
        <time>2025-12-18T19:54:30Z</time>
      </trkpt>
      <trkpt lat="49.76206" lon="5.39372">
        <ele>346</ele>
        <time>2025-12-18T19:54:47Z</time>
      </trkpt>
      <trkpt lat="49.76225" lon="5.39444">
        <ele>342</ele>
        <time>2025-12-18T19:55:12Z</time>
      </trkpt>
      <trkpt lat="49.76228" lon="5.39457">
        <ele>342</ele>
        <time>2025-12-18T19:55:17Z</time>
      </trkpt>
      <trkpt lat="49.76234" lon="5.39473">
        <ele>341</ele>
        <time>2025-12-18T19:55:23Z</time>
      </trkpt>
      <trkpt lat="49.76245" lon="5.39491">
        <ele>340</ele>
        <time>2025-12-18T19:55:31Z</time>
      </trkpt>
      <trkpt lat="49.7626" lon="5.39509">
        <ele>340</ele>
        <time>2025-12-18T19:55:40Z</time>
      </trkpt>
      <trkpt lat="49.76272" lon="5.39522">
        <ele>340</ele>
        <time>2025-12-18T19:55:47Z</time>
      </trkpt>
      <trkpt lat="49.76277" lon="5.39525">
        <ele>340</ele>
        <time>2025-12-18T19:55:50Z</time>
      </trkpt>
      <trkpt lat="49.76283" lon="5.39518">
        <ele>340</ele>
        <time>2025-12-18T19:55:54Z</time>
      </trkpt>
      <trkpt lat="49.76287" lon="5.39504">
        <ele>340</ele>
        <time>2025-12-18T19:55:59Z</time>
      </trkpt>
      <trkpt lat="49.76302" lon="5.39484">
        <ele>342</ele>
        <time>2025-12-18T19:56:09Z</time>
      </trkpt>
      <trkpt lat="49.76319" lon="5.39469">
        <ele>343</ele>
        <time>2025-12-18T19:56:19Z</time>
      </trkpt>
      <trkpt lat="49.76342" lon="5.39586">
        <ele>337</ele>
        <time>2025-12-18T19:56:58Z</time>
      </trkpt>
      <trkpt lat="49.76349" lon="5.39625">
        <ele>337</ele>
        <time>2025-12-18T19:57:11Z</time>
      </trkpt>
      <trkpt lat="49.76368" lon="5.39713">
        <ele>337</ele>
        <time>2025-12-18T19:57:41Z</time>
      </trkpt>
      <trkpt lat="49.76389" lon="5.39812">
        <ele>337</ele>
        <time>2025-12-18T19:58:15Z</time>
      </trkpt>
      <trkpt lat="49.76394" lon="5.39841">
        <ele>337</ele>
        <time>2025-12-18T19:58:25Z</time>
      </trkpt>
      <trkpt lat="49.76396" lon="5.39861">
        <ele>338</ele>
        <time>2025-12-18T19:58:31Z</time>
      </trkpt>
      <trkpt lat="49.76396" lon="5.39882">
        <ele>338</ele>
        <time>2025-12-18T19:58:38Z</time>
      </trkpt>
      <trkpt lat="49.76395" lon="5.39894">
        <ele>338</ele>
        <time>2025-12-18T19:58:42Z</time>
      </trkpt>
      <trkpt lat="49.76393" lon="5.39907">
        <ele>338</ele>
        <time>2025-12-18T19:58:46Z</time>
      </trkpt>
      <trkpt lat="49.76386" lon="5.3995">
        <ele>340</ele>
        <time>2025-12-18T19:59:00Z</time>
      </trkpt>
      <trkpt lat="49.76386" lon="5.39959">
        <ele>340</ele>
        <time>2025-12-18T19:59:03Z</time>
      </trkpt>
      <trkpt lat="49.76379" lon="5.39963">
        <ele>340</ele>
        <time>2025-12-18T19:59:07Z</time>
      </trkpt>
      <trkpt lat="49.76362" lon="5.39993">
        <ele>342</ele>
        <time>2025-12-18T19:59:20Z</time>
      </trkpt>
      <trkpt lat="49.76356" lon="5.40005">
        <ele>343</ele>
        <time>2025-12-18T19:59:25Z</time>
      </trkpt>
      <trkpt lat="49.76342" lon="5.40014">
        <ele>344</ele>
        <time>2025-12-18T19:59:32Z</time>
      </trkpt>
      <trkpt lat="49.76321" lon="5.40022">
        <ele>346</ele>
        <time>2025-12-18T19:59:43Z</time>
      </trkpt>
      <trkpt lat="49.76294" lon="5.40021">
        <ele>347</ele>
        <time>2025-12-18T19:59:57Z</time>
      </trkpt>
      <trkpt lat="49.76281" lon="5.40018">
        <ele>348</ele>
        <time>2025-12-18T20:00:03Z</time>
      </trkpt>
      <trkpt lat="49.76263" lon="5.40013">
        <ele>349</ele>
        <time>2025-12-18T20:00:13Z</time>
      </trkpt>
      <trkpt lat="49.76234" lon="5.39994">
        <ele>349</ele>
        <time>2025-12-18T20:00:28Z</time>
      </trkpt>
      <trkpt lat="49.76206" lon="5.39973">
        <ele>348</ele>
        <time>2025-12-18T20:00:44Z</time>
      </trkpt>
      <trkpt lat="49.762" lon="5.39988">
        <ele>349</ele>
        <time>2025-12-18T20:00:50Z</time>
      </trkpt>
      <trkpt lat="49.76195" lon="5.4001">
        <ele>350</ele>
        <time>2025-12-18T20:00:57Z</time>
      </trkpt>
      <trkpt lat="49.76192" lon="5.40041">
        <ele>352</ele>
        <time>2025-12-18T20:01:07Z</time>
      </trkpt>
      <trkpt lat="49.76192" lon="5.40059">
        <ele>354</ele>
        <time>2025-12-18T20:01:13Z</time>
      </trkpt>
      <trkpt lat="49.76194" lon="5.40076">
        <ele>355</ele>
        <time>2025-12-18T20:01:19Z</time>
      </trkpt>
      <trkpt lat="49.76211" lon="5.40148">
        <ele>358</ele>
        <time>2025-12-18T20:01:43Z</time>
      </trkpt>
      <trkpt lat="49.76227" lon="5.40218">
        <ele>360</ele>
        <time>2025-12-18T20:02:07Z</time>
      </trkpt>
      <trkpt lat="49.76233" lon="5.40263">
        <ele>362</ele>
        <time>2025-12-18T20:02:22Z</time>
      </trkpt>
      <trkpt lat="49.76237" lon="5.40311">
        <ele>363</ele>
        <time>2025-12-18T20:02:38Z</time>
      </trkpt>
      <trkpt lat="49.76238" lon="5.4036">
        <ele>365</ele>
        <time>2025-12-18T20:02:54Z</time>
      </trkpt>
      <trkpt lat="49.76237" lon="5.40441">
        <ele>370</ele>
        <time>2025-12-18T20:03:20Z</time>
      </trkpt>
      <trkpt lat="49.76223" lon="5.40819">
        <ele>378</ele>
        <time>2025-12-18T20:05:22Z</time>
      </trkpt>
      <trkpt lat="49.76222" lon="5.40852">
        <ele>378</ele>
        <time>2025-12-18T20:05:33Z</time>
      </trkpt>
      <trkpt lat="49.76224" lon="5.40913">
        <ele>377</ele>
        <time>2025-12-18T20:05:53Z</time>
      </trkpt>
      <trkpt lat="49.76226" lon="5.40987">
        <ele>376</ele>
        <time>2025-12-18T20:06:17Z</time>
      </trkpt>
      <trkpt lat="49.76227" lon="5.41116">
        <ele>377</ele>
        <time>2025-12-18T20:06:58Z</time>
      </trkpt>
      <trkpt lat="49.76224" lon="5.41237">
        <ele>378</ele>
        <time>2025-12-18T20:07:38Z</time>
      </trkpt>
      <trkpt lat="49.76221" lon="5.41297">
        <ele>378</ele>
        <time>2025-12-18T20:07:57Z</time>
      </trkpt>
      <trkpt lat="49.76218" lon="5.41385">
        <ele>379</ele>
        <time>2025-12-18T20:08:25Z</time>
      </trkpt>
      <trkpt lat="49.76212" lon="5.41433">
        <ele>380</ele>
        <time>2025-12-18T20:08:41Z</time>
      </trkpt>
      <trkpt lat="49.76206" lon="5.41466">
        <ele>381</ele>
        <time>2025-12-18T20:08:52Z</time>
      </trkpt>
      <trkpt lat="49.76198" lon="5.41501">
        <ele>382</ele>
        <time>2025-12-18T20:09:04Z</time>
      </trkpt>
      <trkpt lat="49.7619" lon="5.41523">
        <ele>383</ele>
        <time>2025-12-18T20:09:13Z</time>
      </trkpt>
      <trkpt lat="49.76168" lon="5.41575">
        <ele>387</ele>
        <time>2025-12-18T20:09:33Z</time>
      </trkpt>
      <trkpt lat="49.76155" lon="5.41601">
        <ele>387</ele>
        <time>2025-12-18T20:09:43Z</time>
      </trkpt>
      <trkpt lat="49.76059" lon="5.4177">
        <ele>385</ele>
        <time>2025-12-18T20:10:56Z</time>
      </trkpt>
      <trkpt lat="49.76048" lon="5.41798">
        <ele>383</ele>
        <time>2025-12-18T20:11:07Z</time>
      </trkpt>
      <trkpt lat="49.76041" lon="5.41818">
        <ele>382</ele>
        <time>2025-12-18T20:11:14Z</time>
      </trkpt>
      <trkpt lat="49.76008" lon="5.41954">
        <ele>375</ele>
        <time>2025-12-18T20:12:01Z</time>
      </trkpt>
      <trkpt lat="49.76004" lon="5.42008">
        <ele>373</ele>
        <time>2025-12-18T20:12:18Z</time>
      </trkpt>
      <trkpt lat="49.75994" lon="5.42094">
        <ele>374</ele>
        <time>2025-12-18T20:12:47Z</time>
      </trkpt>
      <trkpt lat="49.7597" lon="5.42255">
        <ele>373</ele>
        <time>2025-12-18T20:13:40Z</time>
      </trkpt>
      <trkpt lat="49.75951" lon="5.42397">
        <ele>375</ele>
        <time>2025-12-18T20:14:27Z</time>
      </trkpt>
      <trkpt lat="49.75943" lon="5.42544">
        <ele>377</ele>
        <time>2025-12-18T20:15:15Z</time>
      </trkpt>
      <trkpt lat="49.75938" lon="5.42563">
        <ele>377</ele>
        <time>2025-12-18T20:15:21Z</time>
      </trkpt>
      <trkpt lat="49.75941" lon="5.4258">
        <ele>378</ele>
        <time>2025-12-18T20:15:27Z</time>
      </trkpt>
      <trkpt lat="49.75939" lon="5.4264">
        <ele>382</ele>
        <time>2025-12-18T20:15:46Z</time>
      </trkpt>
      <trkpt lat="49.75938" lon="5.42664">
        <ele>383</ele>
        <time>2025-12-18T20:15:54Z</time>
      </trkpt>
      <trkpt lat="49.75937" lon="5.42685">
        <ele>384</ele>
        <time>2025-12-18T20:16:01Z</time>
      </trkpt>
      <trkpt lat="49.75937" lon="5.42733">
        <ele>385</ele>
        <time>2025-12-18T20:16:17Z</time>
      </trkpt>
      <trkpt lat="49.7594" lon="5.42808">
        <ele>386</ele>
        <time>2025-12-18T20:16:41Z</time>
      </trkpt>
      <trkpt lat="49.75944" lon="5.42887">
        <ele>388</ele>
        <time>2025-12-18T20:17:06Z</time>
      </trkpt>
      <trkpt lat="49.75945" lon="5.42969">
        <ele>394</ele>
        <time>2025-12-18T20:17:33Z</time>
      </trkpt>
      <trkpt lat="49.75939" lon="5.43009">
        <ele>397</ele>
        <time>2025-12-18T20:17:46Z</time>
      </trkpt>
      <trkpt lat="49.75818" lon="5.43235">
        <ele>412</ele>
        <time>2025-12-18T20:19:21Z</time>
      </trkpt>
      <trkpt lat="49.75786" lon="5.43298">
        <ele>418</ele>
        <time>2025-12-18T20:19:47Z</time>
      </trkpt>
      <trkpt lat="49.75749" lon="5.43365">
        <ele>421</ele>
        <time>2025-12-18T20:20:16Z</time>
      </trkpt>
      <trkpt lat="49.7568" lon="5.43483">
        <ele>414</ele>
        <time>2025-12-18T20:21:07Z</time>
      </trkpt>
      <trkpt lat="49.75662" lon="5.43517">
        <ele>412</ele>
        <time>2025-12-18T20:21:21Z</time>
      </trkpt>
      <trkpt lat="49.75587" lon="5.43657">
        <ele>406</ele>
        <time>2025-12-18T20:22:20Z</time>
      </trkpt>
      <trkpt lat="49.75521" lon="5.43773">
        <ele>397</ele>
        <time>2025-12-18T20:23:10Z</time>
      </trkpt>
      <trkpt lat="49.75509" lon="5.43792">
        <ele>395</ele>
        <time>2025-12-18T20:23:19Z</time>
      </trkpt>
      <trkpt lat="49.75392" lon="5.44015">
        <ele>383</ele>
        <time>2025-12-18T20:24:51Z</time>
      </trkpt>
      <trkpt lat="49.75357" lon="5.44075">
        <ele>390</ele>
        <time>2025-12-18T20:25:18Z</time>
      </trkpt>
      <trkpt lat="49.7529" lon="5.44195">
        <ele>405</ele>
        <time>2025-12-18T20:26:09Z</time>
      </trkpt>
      <trkpt lat="49.75249" lon="5.4426">
        <ele>416</ele>
        <time>2025-12-18T20:26:38Z</time>
      </trkpt>
      <trkpt lat="49.75219" lon="5.4432">
        <ele>420</ele>
        <time>2025-12-18T20:27:03Z</time>
      </trkpt>
      <trkpt lat="49.7515" lon="5.44441">
        <ele>423</ele>
        <time>2025-12-18T20:27:55Z</time>
      </trkpt>
      <trkpt lat="49.75107" lon="5.44525">
        <ele>425</ele>
        <time>2025-12-18T20:28:30Z</time>
      </trkpt>
      <trkpt lat="49.74835" lon="5.45032">
        <ele>437</ele>
        <time>2025-12-18T20:32:03Z</time>
      </trkpt>
      <trkpt lat="49.74717" lon="5.45241">
        <ele>443</ele>
        <time>2025-12-18T20:33:32Z</time>
      </trkpt>
      <trkpt lat="49.74569" lon="5.45531">
        <ele>447</ele>
        <time>2025-12-18T20:35:32Z</time>
      </trkpt>
      <trkpt lat="49.74452" lon="5.45738">
        <ele>447</ele>
        <time>2025-12-18T20:37:01Z</time>
      </trkpt>
      <trkpt lat="49.74438" lon="5.4576">
        <ele>448</ele>
        <time>2025-12-18T20:37:11Z</time>
      </trkpt>
      <trkpt lat="49.74351" lon="5.45862">
        <ele>452</ele>
        <time>2025-12-18T20:38:05Z</time>
      </trkpt>
      <trkpt lat="49.74307" lon="5.45908">
        <ele>451</ele>
        <time>2025-12-18T20:38:32Z</time>
      </trkpt>
      <trkpt lat="49.74267" lon="5.45956">
        <ele>448</ele>
        <time>2025-12-18T20:38:57Z</time>
      </trkpt>
      <trkpt lat="49.74229" lon="5.45995">
        <ele>447</ele>
        <time>2025-12-18T20:39:20Z</time>
      </trkpt>
      <trkpt lat="49.74026" lon="5.46221">
        <ele>433</ele>
        <time>2025-12-18T20:41:25Z</time>
      </trkpt>
      <trkpt lat="49.73912" lon="5.46349">
        <ele>428</ele>
        <time>2025-12-18T20:42:36Z</time>
      </trkpt>
      <trkpt lat="49.73751" lon="5.46534">
        <ele>411</ele>
        <time>2025-12-18T20:44:16Z</time>
      </trkpt>
      <trkpt lat="49.7361" lon="5.46697">
        <ele>396</ele>
        <time>2025-12-18T20:45:44Z</time>
      </trkpt>
      <trkpt lat="49.73576" lon="5.46741">
        <ele>392</ele>
        <time>2025-12-18T20:46:06Z</time>
      </trkpt>
      <trkpt lat="49.73527" lon="5.46789">
        <ele>387</ele>
        <time>2025-12-18T20:46:35Z</time>
      </trkpt>
      <trkpt lat="49.73451" lon="5.46873">
        <ele>380</ele>
        <time>2025-12-18T20:47:22Z</time>
      </trkpt>
      <trkpt lat="49.73456" lon="5.46882">
        <ele>380</ele>
        <time>2025-12-18T20:47:26Z</time>
      </trkpt>
      <trkpt lat="49.73462" lon="5.46885">
        <ele>380</ele>
        <time>2025-12-18T20:47:29Z</time>
      </trkpt>
      <trkpt lat="49.73469" lon="5.46883">
        <ele>381</ele>
        <time>2025-12-18T20:47:33Z</time>
      </trkpt>
      <trkpt lat="49.73485" lon="5.4689">
        <ele>381</ele>
        <time>2025-12-18T20:47:41Z</time>
      </trkpt>
      <trkpt lat="49.73504" lon="5.46894">
        <ele>383</ele>
        <time>2025-12-18T20:47:51Z</time>
      </trkpt>
      <trkpt lat="49.73537" lon="5.46894">
        <ele>385</ele>
        <time>2025-12-18T20:48:07Z</time>
      </trkpt>
      <trkpt lat="49.73583" lon="5.4689">
        <ele>388</ele>
        <time>2025-12-18T20:48:30Z</time>
      </trkpt>
      <trkpt lat="49.73598" lon="5.4689">
        <ele>389</ele>
        <time>2025-12-18T20:48:38Z</time>
      </trkpt>
      <trkpt lat="49.73611" lon="5.46896">
        <ele>390</ele>
        <time>2025-12-18T20:48:45Z</time>
      </trkpt>
      <trkpt lat="49.7363" lon="5.4693">
        <ele>391</ele>
        <time>2025-12-18T20:48:59Z</time>
      </trkpt>
      <trkpt lat="49.73636" lon="5.46949">
        <ele>391</ele>
        <time>2025-12-18T20:49:06Z</time>
      </trkpt>
      <trkpt lat="49.73646" lon="5.46965">
        <ele>392</ele>
        <time>2025-12-18T20:49:13Z</time>
      </trkpt>
      <trkpt lat="49.73673" lon="5.46994">
        <ele>394</ele>
        <time>2025-12-18T20:49:30Z</time>
      </trkpt>
      <trkpt lat="49.73681" lon="5.47035">
        <ele>394</ele>
        <time>2025-12-18T20:49:43Z</time>
      </trkpt>
      <trkpt lat="49.73698" lon="5.47062">
        <ele>395</ele>
        <time>2025-12-18T20:49:56Z</time>
      </trkpt>
      <trkpt lat="49.7373" lon="5.47084">
        <ele>395</ele>
        <time>2025-12-18T20:50:13Z</time>
      </trkpt>
      <trkpt lat="49.73758" lon="5.47107">
        <ele>396</ele>
        <time>2025-12-18T20:50:29Z</time>
      </trkpt>
      <trkpt lat="49.73761" lon="5.47114">
        <ele>396</ele>
        <time>2025-12-18T20:50:32Z</time>
      </trkpt>
      <trkpt lat="49.73747" lon="5.47208">
        <ele>393</ele>
        <time>2025-12-18T20:51:03Z</time>
      </trkpt>
      <trkpt lat="49.73727" lon="5.47319">
        <ele>394</ele>
        <time>2025-12-18T20:51:40Z</time>
      </trkpt>
      <trkpt lat="49.73713" lon="5.47424">
        <ele>393</ele>
        <time>2025-12-18T20:52:15Z</time>
      </trkpt>
      <trkpt lat="49.73714" lon="5.47551">
        <ele>391</ele>
        <time>2025-12-18T20:52:56Z</time>
      </trkpt>
      <trkpt lat="49.73681" lon="5.47503">
        <ele>394</ele>
        <time>2025-12-18T20:53:19Z</time>
      </trkpt>
      <trkpt lat="49.73641" lon="5.47431">
        <ele>396</ele>
        <time>2025-12-18T20:53:49Z</time>
      </trkpt>
      <trkpt lat="49.73561" lon="5.47271">
        <ele>392</ele>
        <time>2025-12-18T20:54:55Z</time>
      </trkpt>
      <trkpt lat="49.73552" lon="5.47267">
        <ele>392</ele>
        <time>2025-12-18T20:54:59Z</time>
      </trkpt>
      <trkpt lat="49.73535" lon="5.47268">
        <ele>392</ele>
        <time>2025-12-18T20:55:08Z</time>
      </trkpt>
      <trkpt lat="49.73513" lon="5.47275">
        <ele>392</ele>
        <time>2025-12-18T20:55:19Z</time>
      </trkpt>
      <trkpt lat="49.73371" lon="5.47362">
        <ele>389</ele>
        <time>2025-12-18T20:56:36Z</time>
      </trkpt>
      <trkpt lat="49.73358" lon="5.47361">
        <ele>388</ele>
        <time>2025-12-18T20:56:42Z</time>
      </trkpt>
      <trkpt lat="49.7335" lon="5.47363">
        <ele>388</ele>
        <time>2025-12-18T20:56:46Z</time>
      </trkpt>
      <trkpt lat="49.73321" lon="5.47394">
        <ele>388</ele>
        <time>2025-12-18T20:57:04Z</time>
      </trkpt>
      <trkpt lat="49.73246" lon="5.47473">
        <ele>385</ele>
        <time>2025-12-18T20:57:49Z</time>
      </trkpt>
      <trkpt lat="49.72976" lon="5.47576">
        <ele>382</ele>
        <time>2025-12-18T21:00:08Z</time>
      </trkpt>
      <trkpt lat="49.72972" lon="5.47581">
        <ele>383</ele>
        <time>2025-12-18T21:00:11Z</time>
      </trkpt>
      <trkpt lat="49.72954" lon="5.47576">
        <ele>382</ele>
        <time>2025-12-18T21:00:20Z</time>
      </trkpt>
      <trkpt lat="49.7292" lon="5.47572">
        <ele>382</ele>
        <time>2025-12-18T21:00:37Z</time>
      </trkpt>
      <trkpt lat="49.72891" lon="5.47562">
        <ele>378</ele>
        <time>2025-12-18T21:00:52Z</time>
      </trkpt>
      <trkpt lat="49.7288" lon="5.47581">
        <ele>377</ele>
        <time>2025-12-18T21:01:00Z</time>
      </trkpt>
      <trkpt lat="49.72879" lon="5.47582">
        <ele>377</ele>
        <time>2025-12-18T21:01:01Z</time>
      </trkpt>
      <trkpt lat="49.72879" lon="5.47582">
        <ele>377</ele>
        <time>2025-12-18T21:01:01Z</time>
      </trkpt>
      <trkpt lat="49.72879" lon="5.47584">
        <ele>377</ele>
        <time>2025-12-18T21:01:01Z</time>
      </trkpt>
      <trkpt lat="49.72876" lon="5.47589">
        <ele>377</ele>
        <time>2025-12-18T21:01:04Z</time>
      </trkpt>
      <trkpt lat="49.72848" lon="5.47636">
        <ele>374</ele>
        <time>2025-12-18T21:01:24Z</time>
      </trkpt>
      <trkpt lat="49.72836" lon="5.47659">
        <ele>374</ele>
        <time>2025-12-18T21:01:34Z</time>
      </trkpt>
      <trkpt lat="49.72741" lon="5.4783">
        <ele>363</ele>
        <time>2025-12-18T21:02:47Z</time>
      </trkpt>
      <trkpt lat="49.72691" lon="5.4774">
        <ele>362</ele>
        <time>2025-12-18T21:03:25Z</time>
      </trkpt>
      <trkpt lat="49.7265" lon="5.47675">
        <ele>361</ele>
        <time>2025-12-18T21:03:55Z</time>
      </trkpt>
      <trkpt lat="49.72618" lon="5.47632">
        <ele>359</ele>
        <time>2025-12-18T21:04:16Z</time>
      </trkpt>
      <trkpt lat="49.72599" lon="5.47606">
        <ele>357</ele>
        <time>2025-12-18T21:04:29Z</time>
      </trkpt>
      <trkpt lat="49.72543" lon="5.4752">
        <ele>354</ele>
        <time>2025-12-18T21:05:08Z</time>
      </trkpt>
      <trkpt lat="49.72535" lon="5.47512">
        <ele>353</ele>
        <time>2025-12-18T21:05:13Z</time>
      </trkpt>
      <trkpt lat="49.72479" lon="5.47587">
        <ele>354</ele>
        <time>2025-12-18T21:05:50Z</time>
      </trkpt>
      <trkpt lat="49.72478" lon="5.47586">
        <ele>354</ele>
        <time>2025-12-18T21:05:50Z</time>
      </trkpt>
      <trkpt lat="49.72479" lon="5.47587">
        <ele>354</ele>
        <time>2025-12-18T21:05:51Z</time>
      </trkpt>
      <trkpt lat="49.72471" lon="5.47599">
        <ele>354</ele>
        <time>2025-12-18T21:05:57Z</time>
      </trkpt>
      <trkpt lat="49.72433" lon="5.47669">
        <ele>354</ele>
        <time>2025-12-18T21:06:26Z</time>
      </trkpt>
      <trkpt lat="49.7241" lon="5.47703">
        <ele>353</ele>
        <time>2025-12-18T21:06:42Z</time>
      </trkpt>
      <trkpt lat="49.72361" lon="5.47749">
        <ele>350</ele>
        <time>2025-12-18T21:07:11Z</time>
      </trkpt>
      <trkpt lat="49.72327" lon="5.4778">
        <ele>349</ele>
        <time>2025-12-18T21:07:31Z</time>
      </trkpt>
      <trkpt lat="49.7229" lon="5.47827">
        <ele>347</ele>
        <time>2025-12-18T21:07:55Z</time>
      </trkpt>
      <trkpt lat="49.72251" lon="5.479">
        <ele>347</ele>
        <time>2025-12-18T21:08:25Z</time>
      </trkpt>
      <trkpt lat="49.72224" lon="5.47947">
        <ele>347</ele>
        <time>2025-12-18T21:08:45Z</time>
      </trkpt>
      <trkpt lat="49.72216" lon="5.47958">
        <ele>347</ele>
        <time>2025-12-18T21:08:51Z</time>
      </trkpt>
      <trkpt lat="49.72196" lon="5.47972">
        <ele>347</ele>
        <time>2025-12-18T21:09:02Z</time>
      </trkpt>
      <trkpt lat="49.72177" lon="5.47984">
        <ele>346</ele>
        <time>2025-12-18T21:09:12Z</time>
      </trkpt>
      <trkpt lat="49.72159" lon="5.47991">
        <ele>346</ele>
        <time>2025-12-18T21:09:21Z</time>
      </trkpt>
      <trkpt lat="49.72134" lon="5.48003">
        <ele>345</ele>
        <time>2025-12-18T21:09:34Z</time>
      </trkpt>
      <trkpt lat="49.72119" lon="5.4801">
        <ele>344</ele>
        <time>2025-12-18T21:09:42Z</time>
      </trkpt>
      <trkpt lat="49.7211" lon="5.48019">
        <ele>344</ele>
        <time>2025-12-18T21:09:48Z</time>
      </trkpt>
      <trkpt lat="49.72097" lon="5.4804">
        <ele>344</ele>
        <time>2025-12-18T21:09:57Z</time>
      </trkpt>
      <trkpt lat="49.72082" lon="5.4808">
        <ele>343</ele>
        <time>2025-12-18T21:10:12Z</time>
      </trkpt>
      <trkpt lat="49.72053" lon="5.48058">
        <ele>342</ele>
        <time>2025-12-18T21:10:28Z</time>
      </trkpt>
      <trkpt lat="49.72045" lon="5.48044">
        <ele>341</ele>
        <time>2025-12-18T21:10:34Z</time>
      </trkpt>
      <trkpt lat="49.72042" lon="5.48027">
        <ele>341</ele>
        <time>2025-12-18T21:10:40Z</time>
      </trkpt>
      <trkpt lat="49.72042" lon="5.48027">
        <ele>341</ele>
        <time>2025-12-18T21:10:40Z</time>
      </trkpt>
      <trkpt lat="49.72034" lon="5.48036">
        <ele>341</ele>
        <time>2025-12-18T21:10:45Z</time>
      </trkpt>
      <trkpt lat="49.72034" lon="5.48036">
        <ele>341</ele>
        <time>2025-12-18T21:10:45Z</time>
      </trkpt>
      <trkpt lat="49.7202" lon="5.48055">
        <ele>340</ele>
        <time>2025-12-18T21:10:54Z</time>
      </trkpt>
      <trkpt lat="49.72017" lon="5.48067">
        <ele>340</ele>
        <time>2025-12-18T21:10:58Z</time>
      </trkpt>
      <trkpt lat="49.72009" lon="5.48084">
        <ele>339</ele>
        <time>2025-12-18T21:11:05Z</time>
      </trkpt>
      <trkpt lat="49.72001" lon="5.4811">
        <ele>339</ele>
        <time>2025-12-18T21:11:15Z</time>
      </trkpt>
      <trkpt lat="49.71993" lon="5.48145">
        <ele>338</ele>
        <time>2025-12-18T21:11:27Z</time>
      </trkpt>
      <trkpt lat="49.7199" lon="5.48167">
        <ele>338</ele>
        <time>2025-12-18T21:11:34Z</time>
      </trkpt>
      <trkpt lat="49.71989" lon="5.48204">
        <ele>337</ele>
        <time>2025-12-18T21:11:46Z</time>
      </trkpt>
      <trkpt lat="49.71992" lon="5.48244">
        <ele>336</ele>
        <time>2025-12-18T21:11:59Z</time>
      </trkpt>
      <trkpt lat="49.71997" lon="5.48286">
        <ele>336</ele>
        <time>2025-12-18T21:12:13Z</time>
      </trkpt>
      <trkpt lat="49.71997" lon="5.48298">
        <ele>335</ele>
        <time>2025-12-18T21:12:17Z</time>
      </trkpt>
      <trkpt lat="49.71995" lon="5.48309">
        <ele>335</ele>
        <time>2025-12-18T21:12:20Z</time>
      </trkpt>
      <trkpt lat="49.71959" lon="5.48396">
        <ele>336</ele>
        <time>2025-12-18T21:12:54Z</time>
      </trkpt>
      <trkpt lat="49.71959" lon="5.48396">
        <ele>336</ele>
        <time>2025-12-18T21:12:54Z</time>
      </trkpt>
      <trkpt lat="49.71955" lon="5.48408">
        <ele>336</ele>
        <time>2025-12-18T21:12:58Z</time>
      </trkpt>
      <trkpt lat="49.71932" lon="5.48389">
        <ele>335</ele>
        <time>2025-12-18T21:13:11Z</time>
      </trkpt>
      <trkpt lat="49.71905" lon="5.48368">
        <ele>335</ele>
        <time>2025-12-18T21:13:26Z</time>
      </trkpt>
      <trkpt lat="49.71859" lon="5.48327">
        <ele>335</ele>
        <time>2025-12-18T21:13:53Z</time>
      </trkpt>
      <trkpt lat="49.71858" lon="5.48327">
        <ele>335</ele>
        <time>2025-12-18T21:13:53Z</time>
      </trkpt>
    </trkseg>
  </trk>
</gpx>